<?xml version="1.0" encoding="UTF-8" standalone="no" ?>
<gpx xmlns="http://www.topografix.com/GPX/1/1" xmlns:xsi="http://www.w3.org/2001/XMLSchema-instance" xsi:schemaLocation="http://www.topografix.com/GPX/1/1 http://www.topografix.com/GPX/1/1/gpx.xsd" version="1.1" creator="VisuGPX - https://www.visugpx.com">
  <metadata>
    <name>Course à pied le midi</name>
  </metadata>
  <trk>
    <name><![CDATA[Course à pied le midi_1]]></name>
    <trkseg>
      <trkpt lat="48.71162" lon="7.16262">
        <ele>315.5</ele>
        <time>2023-10-01T10:19:57Z</time>
      </trkpt>
      <trkpt lat="48.71179" lon="7.16251">
        <ele>314.6</ele>
        <time>2023-10-01T10:20:05Z</time>
      </trkpt>
      <trkpt lat="48.71197" lon="7.1625">
        <ele>313.8</ele>
        <time>2023-10-01T10:20:11Z</time>
      </trkpt>
      <trkpt lat="48.71216" lon="7.16257">
        <ele>313.1</ele>
        <time>2023-10-01T10:20:17Z</time>
      </trkpt>
      <trkpt lat="48.71234" lon="7.16268">
        <ele>312.5</ele>
        <time>2023-10-01T10:20:23Z</time>
      </trkpt>
      <trkpt lat="48.71252" lon="7.16281">
        <ele>312.1</ele>
        <time>2023-10-01T10:20:30Z</time>
      </trkpt>
      <trkpt lat="48.71265" lon="7.16306">
        <ele>311.7</ele>
        <time>2023-10-01T10:20:38Z</time>
      </trkpt>
      <trkpt lat="48.71281" lon="7.16325">
        <ele>311.5</ele>
        <time>2023-10-01T10:20:46Z</time>
      </trkpt>
      <trkpt lat="48.71297" lon="7.16338">
        <ele>311.4</ele>
        <time>2023-10-01T10:20:53Z</time>
      </trkpt>
      <trkpt lat="48.71315" lon="7.16352">
        <ele>311.1</ele>
        <time>2023-10-01T10:21:01Z</time>
      </trkpt>
      <trkpt lat="48.71332" lon="7.16364">
        <ele>310.9</ele>
        <time>2023-10-01T10:21:09Z</time>
      </trkpt>
      <trkpt lat="48.7135" lon="7.16371">
        <ele>310.7</ele>
        <time>2023-10-01T10:21:17Z</time>
      </trkpt>
      <trkpt lat="48.71369" lon="7.16382">
        <ele>310.2</ele>
        <time>2023-10-01T10:21:25Z</time>
      </trkpt>
      <trkpt lat="48.71387" lon="7.16392">
        <ele>309.6</ele>
        <time>2023-10-01T10:21:32Z</time>
      </trkpt>
      <trkpt lat="48.71405" lon="7.16398">
        <ele>308.7</ele>
        <time>2023-10-01T10:21:39Z</time>
      </trkpt>
      <trkpt lat="48.71423" lon="7.16405">
        <ele>307.8</ele>
        <time>2023-10-01T10:21:46Z</time>
      </trkpt>
      <trkpt lat="48.71442" lon="7.16408">
        <ele>306.7</ele>
        <time>2023-10-01T10:21:53Z</time>
      </trkpt>
      <trkpt lat="48.71461" lon="7.16409">
        <ele>305.7</ele>
        <time>2023-10-01T10:22:00Z</time>
      </trkpt>
      <trkpt lat="48.71482" lon="7.16409">
        <ele>304.7</ele>
        <time>2023-10-01T10:22:07Z</time>
      </trkpt>
      <trkpt lat="48.71501" lon="7.16401">
        <ele>304</ele>
        <time>2023-10-01T10:22:14Z</time>
      </trkpt>
      <trkpt lat="48.71517" lon="7.16388">
        <ele>303.2</ele>
        <time>2023-10-01T10:22:21Z</time>
      </trkpt>
      <trkpt lat="48.71536" lon="7.16377">
        <ele>302.5</ele>
        <time>2023-10-01T10:22:28Z</time>
      </trkpt>
      <trkpt lat="48.71555" lon="7.16373">
        <ele>301.9</ele>
        <time>2023-10-01T10:22:35Z</time>
      </trkpt>
      <trkpt lat="48.71575" lon="7.16371">
        <ele>301.6</ele>
        <time>2023-10-01T10:22:42Z</time>
      </trkpt>
      <trkpt lat="48.71595" lon="7.16374">
        <ele>301.1</ele>
        <time>2023-10-01T10:22:50Z</time>
      </trkpt>
      <trkpt lat="48.71615" lon="7.16377">
        <ele>300.5</ele>
        <time>2023-10-01T10:22:57Z</time>
      </trkpt>
      <trkpt lat="48.71634" lon="7.16381">
        <ele>300</ele>
        <time>2023-10-01T10:23:04Z</time>
      </trkpt>
      <trkpt lat="48.71654" lon="7.16387">
        <ele>299.5</ele>
        <time>2023-10-01T10:23:11Z</time>
      </trkpt>
      <trkpt lat="48.71672" lon="7.16393">
        <ele>299.1</ele>
        <time>2023-10-01T10:23:18Z</time>
      </trkpt>
      <trkpt lat="48.7169" lon="7.164">
        <ele>298.7</ele>
        <time>2023-10-01T10:23:25Z</time>
      </trkpt>
      <trkpt lat="48.7171" lon="7.16408">
        <ele>298.3</ele>
        <time>2023-10-01T10:23:32Z</time>
      </trkpt>
      <trkpt lat="48.71728" lon="7.16413">
        <ele>298</ele>
        <time>2023-10-01T10:23:38Z</time>
      </trkpt>
      <trkpt lat="48.71748" lon="7.16414">
        <ele>297.7</ele>
        <time>2023-10-01T10:23:45Z</time>
      </trkpt>
      <trkpt lat="48.71766" lon="7.16416">
        <ele>297.5</ele>
        <time>2023-10-01T10:23:52Z</time>
      </trkpt>
      <trkpt lat="48.71785" lon="7.16426">
        <ele>297.4</ele>
        <time>2023-10-01T10:24:00Z</time>
      </trkpt>
      <trkpt lat="48.71803" lon="7.16439">
        <ele>297.2</ele>
        <time>2023-10-01T10:24:07Z</time>
      </trkpt>
      <trkpt lat="48.7182" lon="7.16451">
        <ele>296.8</ele>
        <time>2023-10-01T10:24:14Z</time>
      </trkpt>
      <trkpt lat="48.71837" lon="7.16466">
        <ele>296.5</ele>
        <time>2023-10-01T10:24:21Z</time>
      </trkpt>
      <trkpt lat="48.71854" lon="7.16482">
        <ele>296.1</ele>
        <time>2023-10-01T10:24:28Z</time>
      </trkpt>
      <trkpt lat="48.71872" lon="7.16493">
        <ele>295.6</ele>
        <time>2023-10-01T10:24:35Z</time>
      </trkpt>
      <trkpt lat="48.71887" lon="7.16507">
        <ele>295.3</ele>
        <time>2023-10-01T10:24:42Z</time>
      </trkpt>
      <trkpt lat="48.71904" lon="7.16523">
        <ele>294.9</ele>
        <time>2023-10-01T10:24:49Z</time>
      </trkpt>
      <trkpt lat="48.71921" lon="7.16538">
        <ele>294.4</ele>
        <time>2023-10-01T10:24:56Z</time>
      </trkpt>
      <trkpt lat="48.71938" lon="7.16552">
        <ele>293.9</ele>
        <time>2023-10-01T10:25:03Z</time>
      </trkpt>
      <trkpt lat="48.71953" lon="7.16569">
        <ele>293.5</ele>
        <time>2023-10-01T10:25:10Z</time>
      </trkpt>
      <trkpt lat="48.71968" lon="7.16587">
        <ele>293</ele>
        <time>2023-10-01T10:25:17Z</time>
      </trkpt>
      <trkpt lat="48.71983" lon="7.16605">
        <ele>292.5</ele>
        <time>2023-10-01T10:25:25Z</time>
      </trkpt>
      <trkpt lat="48.71998" lon="7.16621">
        <ele>292</ele>
        <time>2023-10-01T10:25:32Z</time>
      </trkpt>
      <trkpt lat="48.72014" lon="7.16616">
        <ele>291.9</ele>
        <time>2023-10-01T10:25:40Z</time>
      </trkpt>
      <trkpt lat="48.72031" lon="7.16605">
        <ele>291.6</ele>
        <time>2023-10-01T10:25:48Z</time>
      </trkpt>
      <trkpt lat="48.72047" lon="7.16624">
        <ele>290.5</ele>
        <time>2023-10-01T10:25:56Z</time>
      </trkpt>
      <trkpt lat="48.72062" lon="7.16645">
        <ele>289.5</ele>
        <time>2023-10-01T10:26:03Z</time>
      </trkpt>
      <trkpt lat="48.72075" lon="7.16665">
        <ele>288.6</ele>
        <time>2023-10-01T10:26:10Z</time>
      </trkpt>
      <trkpt lat="48.72087" lon="7.16687">
        <ele>287.6</ele>
        <time>2023-10-01T10:26:17Z</time>
      </trkpt>
      <trkpt lat="48.721" lon="7.16711">
        <ele>286.6</ele>
        <time>2023-10-01T10:26:25Z</time>
      </trkpt>
      <trkpt lat="48.72113" lon="7.16734">
        <ele>285.8</ele>
        <time>2023-10-01T10:26:32Z</time>
      </trkpt>
      <trkpt lat="48.72129" lon="7.16753">
        <ele>285.2</ele>
        <time>2023-10-01T10:26:39Z</time>
      </trkpt>
      <trkpt lat="48.72142" lon="7.16771">
        <ele>284.9</ele>
        <time>2023-10-01T10:26:46Z</time>
      </trkpt>
      <trkpt lat="48.72159" lon="7.16782">
        <ele>284.7</ele>
        <time>2023-10-01T10:26:53Z</time>
      </trkpt>
      <trkpt lat="48.72178" lon="7.16792">
        <ele>284.6</ele>
        <time>2023-10-01T10:27:00Z</time>
      </trkpt>
      <trkpt lat="48.72195" lon="7.16808">
        <ele>284.6</ele>
        <time>2023-10-01T10:27:07Z</time>
      </trkpt>
      <trkpt lat="48.72206" lon="7.16834">
        <ele>284.7</ele>
        <time>2023-10-01T10:27:14Z</time>
      </trkpt>
      <trkpt lat="48.72212" lon="7.16863">
        <ele>284.8</ele>
        <time>2023-10-01T10:27:21Z</time>
      </trkpt>
      <trkpt lat="48.72216" lon="7.16891">
        <ele>284.9</ele>
        <time>2023-10-01T10:27:28Z</time>
      </trkpt>
      <trkpt lat="48.72221" lon="7.16919">
        <ele>285</ele>
        <time>2023-10-01T10:27:35Z</time>
      </trkpt>
      <trkpt lat="48.72226" lon="7.16947">
        <ele>284.9</ele>
        <time>2023-10-01T10:27:42Z</time>
      </trkpt>
      <trkpt lat="48.72232" lon="7.16973">
        <ele>284.8</ele>
        <time>2023-10-01T10:27:49Z</time>
      </trkpt>
      <trkpt lat="48.72238" lon="7.16999">
        <ele>284.7</ele>
        <time>2023-10-01T10:27:56Z</time>
      </trkpt>
      <trkpt lat="48.72245" lon="7.17024">
        <ele>284.5</ele>
        <time>2023-10-01T10:28:03Z</time>
      </trkpt>
      <trkpt lat="48.72252" lon="7.17051">
        <ele>284.4</ele>
        <time>2023-10-01T10:28:10Z</time>
      </trkpt>
      <trkpt lat="48.72259" lon="7.17077">
        <ele>284.3</ele>
        <time>2023-10-01T10:28:17Z</time>
      </trkpt>
      <trkpt lat="48.72265" lon="7.17104">
        <ele>284.3</ele>
        <time>2023-10-01T10:28:24Z</time>
      </trkpt>
      <trkpt lat="48.72271" lon="7.17132">
        <ele>284.3</ele>
        <time>2023-10-01T10:28:31Z</time>
      </trkpt>
      <trkpt lat="48.72277" lon="7.17161">
        <ele>284.3</ele>
        <time>2023-10-01T10:28:39Z</time>
      </trkpt>
      <trkpt lat="48.72284" lon="7.1719">
        <ele>284.4</ele>
        <time>2023-10-01T10:28:47Z</time>
      </trkpt>
      <trkpt lat="48.72291" lon="7.17216">
        <ele>284.5</ele>
        <time>2023-10-01T10:28:54Z</time>
      </trkpt>
      <trkpt lat="48.72296" lon="7.17244">
        <ele>284.5</ele>
        <time>2023-10-01T10:29:01Z</time>
      </trkpt>
      <trkpt lat="48.72299" lon="7.17272">
        <ele>284.5</ele>
        <time>2023-10-01T10:29:09Z</time>
      </trkpt>
      <trkpt lat="48.72303" lon="7.173">
        <ele>284.4</ele>
        <time>2023-10-01T10:29:16Z</time>
      </trkpt>
      <trkpt lat="48.72305" lon="7.17328">
        <ele>284.3</ele>
        <time>2023-10-01T10:29:23Z</time>
      </trkpt>
      <trkpt lat="48.72306" lon="7.17356">
        <ele>284</ele>
        <time>2023-10-01T10:29:30Z</time>
      </trkpt>
      <trkpt lat="48.7231" lon="7.17383">
        <ele>283.6</ele>
        <time>2023-10-01T10:29:37Z</time>
      </trkpt>
      <trkpt lat="48.72313" lon="7.17413">
        <ele>282.8</ele>
        <time>2023-10-01T10:29:45Z</time>
      </trkpt>
      <trkpt lat="48.72318" lon="7.17442">
        <ele>281.7</ele>
        <time>2023-10-01T10:29:53Z</time>
      </trkpt>
      <trkpt lat="48.72317" lon="7.1747">
        <ele>280.6</ele>
        <time>2023-10-01T10:30:01Z</time>
      </trkpt>
      <trkpt lat="48.72317" lon="7.17498">
        <ele>279.3</ele>
        <time>2023-10-01T10:30:09Z</time>
      </trkpt>
      <trkpt lat="48.72314" lon="7.17526">
        <ele>277.9</ele>
        <time>2023-10-01T10:30:16Z</time>
      </trkpt>
      <trkpt lat="48.72316" lon="7.17555">
        <ele>276.3</ele>
        <time>2023-10-01T10:30:24Z</time>
      </trkpt>
      <trkpt lat="48.72318" lon="7.17587">
        <ele>274.6</ele>
        <time>2023-10-01T10:30:31Z</time>
      </trkpt>
      <trkpt lat="48.72321" lon="7.17615">
        <ele>273.5</ele>
        <time>2023-10-01T10:30:37Z</time>
      </trkpt>
      <trkpt lat="48.72325" lon="7.17644">
        <ele>272.6</ele>
        <time>2023-10-01T10:30:43Z</time>
      </trkpt>
      <trkpt lat="48.72328" lon="7.17674">
        <ele>271.9</ele>
        <time>2023-10-01T10:30:49Z</time>
      </trkpt>
      <trkpt lat="48.72326" lon="7.17704">
        <ele>272</ele>
        <time>2023-10-01T10:30:56Z</time>
      </trkpt>
      <trkpt lat="48.72321" lon="7.17732">
        <ele>271.8</ele>
        <time>2023-10-01T10:31:03Z</time>
      </trkpt>
      <trkpt lat="48.72318" lon="7.1776">
        <ele>271.6</ele>
        <time>2023-10-01T10:31:10Z</time>
      </trkpt>
      <trkpt lat="48.72319" lon="7.17787">
        <ele>271.6</ele>
        <time>2023-10-01T10:31:17Z</time>
      </trkpt>
      <trkpt lat="48.72322" lon="7.17816">
        <ele>271.7</ele>
        <time>2023-10-01T10:31:24Z</time>
      </trkpt>
      <trkpt lat="48.72323" lon="7.17845">
        <ele>271.9</ele>
        <time>2023-10-01T10:31:31Z</time>
      </trkpt>
      <trkpt lat="48.72326" lon="7.17871">
        <ele>272.3</ele>
        <time>2023-10-01T10:31:38Z</time>
      </trkpt>
      <trkpt lat="48.72333" lon="7.17898">
        <ele>272.6</ele>
        <time>2023-10-01T10:31:45Z</time>
      </trkpt>
      <trkpt lat="48.72342" lon="7.17923">
        <ele>272.9</ele>
        <time>2023-10-01T10:31:52Z</time>
      </trkpt>
      <trkpt lat="48.72355" lon="7.17946">
        <ele>273</ele>
        <time>2023-10-01T10:31:59Z</time>
      </trkpt>
      <trkpt lat="48.72366" lon="7.17968">
        <ele>273</ele>
        <time>2023-10-01T10:32:06Z</time>
      </trkpt>
      <trkpt lat="48.7238" lon="7.1799">
        <ele>272.9</ele>
        <time>2023-10-01T10:32:14Z</time>
      </trkpt>
      <trkpt lat="48.72392" lon="7.18012">
        <ele>272.7</ele>
        <time>2023-10-01T10:32:22Z</time>
      </trkpt>
      <trkpt lat="48.72405" lon="7.18034">
        <ele>272.5</ele>
        <time>2023-10-01T10:32:30Z</time>
      </trkpt>
      <trkpt lat="48.7242" lon="7.18053">
        <ele>271.9</ele>
        <time>2023-10-01T10:32:39Z</time>
      </trkpt>
      <trkpt lat="48.7243" lon="7.18081">
        <ele>271</ele>
        <time>2023-10-01T10:32:47Z</time>
      </trkpt>
      <trkpt lat="48.72436" lon="7.18108">
        <ele>270.1</ele>
        <time>2023-10-01T10:32:54Z</time>
      </trkpt>
      <trkpt lat="48.72438" lon="7.18138">
        <ele>269</ele>
        <time>2023-10-01T10:33:01Z</time>
      </trkpt>
      <trkpt lat="48.72438" lon="7.18167">
        <ele>267.9</ele>
        <time>2023-10-01T10:33:08Z</time>
      </trkpt>
      <trkpt lat="48.72439" lon="7.18195">
        <ele>266.9</ele>
        <time>2023-10-01T10:33:15Z</time>
      </trkpt>
      <trkpt lat="48.72441" lon="7.18223">
        <ele>265.9</ele>
        <time>2023-10-01T10:33:22Z</time>
      </trkpt>
      <trkpt lat="48.72446" lon="7.18232">
        <ele>265.5</ele>
        <time>2023-10-01T10:33:26Z</time>
      </trkpt>
      <trkpt lat="48.72463" lon="7.18219">
        <ele>266.2</ele>
        <time>2023-10-01T10:33:35Z</time>
      </trkpt>
      <trkpt lat="48.72464" lon="7.18217">
        <ele>266.3</ele>
        <time>2023-10-01T10:33:36Z</time>
      </trkpt>
      <trkpt lat="48.72458" lon="7.18189">
        <ele>266.6</ele>
        <time>2023-10-01T10:33:45Z</time>
      </trkpt>
      <trkpt lat="48.72448" lon="7.18164">
        <ele>267</ele>
        <time>2023-10-01T10:33:53Z</time>
      </trkpt>
      <trkpt lat="48.72443" lon="7.18136">
        <ele>267.6</ele>
        <time>2023-10-01T10:34:02Z</time>
      </trkpt>
      <trkpt lat="48.72437" lon="7.18109">
        <ele>268.6</ele>
        <time>2023-10-01T10:34:11Z</time>
      </trkpt>
      <trkpt lat="48.7243" lon="7.1808">
        <ele>270.1</ele>
        <time>2023-10-01T10:34:21Z</time>
      </trkpt>
      <trkpt lat="48.72425" lon="7.18053">
        <ele>271.5</ele>
        <time>2023-10-01T10:34:29Z</time>
      </trkpt>
      <trkpt lat="48.72416" lon="7.18026">
        <ele>272.1</ele>
        <time>2023-10-01T10:34:38Z</time>
      </trkpt>
      <trkpt lat="48.72403" lon="7.18005">
        <ele>272.2</ele>
        <time>2023-10-01T10:34:46Z</time>
      </trkpt>
      <trkpt lat="48.72388" lon="7.17988">
        <ele>272.1</ele>
        <time>2023-10-01T10:34:54Z</time>
      </trkpt>
      <trkpt lat="48.72378" lon="7.17966">
        <ele>272.1</ele>
        <time>2023-10-01T10:35:03Z</time>
      </trkpt>
      <trkpt lat="48.72376" lon="7.17967">
        <ele>272.1</ele>
        <time>2023-10-01T10:35:04Z</time>
      </trkpt>
      <trkpt lat="48.72369" lon="7.17991">
        <ele>272.1</ele>
        <time>2023-10-01T10:35:13Z</time>
      </trkpt>
      <trkpt lat="48.7237" lon="7.18021">
        <ele>272.2</ele>
        <time>2023-10-01T10:35:21Z</time>
      </trkpt>
      <trkpt lat="48.72368" lon="7.1805">
        <ele>272.2</ele>
        <time>2023-10-01T10:35:31Z</time>
      </trkpt>
      <trkpt lat="48.72369" lon="7.18054">
        <ele>272.2</ele>
        <time>2023-10-01T10:35:33Z</time>
      </trkpt>
      <trkpt lat="48.72372" lon="7.18056">
        <ele>272.2</ele>
        <time>2023-10-01T10:35:35Z</time>
      </trkpt>
      <trkpt lat="48.72378" lon="7.18033">
        <ele>272.2</ele>
        <time>2023-10-01T10:35:44Z</time>
      </trkpt>
      <trkpt lat="48.72367" lon="7.1801">
        <ele>272.1</ele>
        <time>2023-10-01T10:35:55Z</time>
      </trkpt>
      <trkpt lat="48.72366" lon="7.17988">
        <ele>272.1</ele>
        <time>2023-10-01T10:36:02Z</time>
      </trkpt>
      <trkpt lat="48.72358" lon="7.18001">
        <ele>272.1</ele>
        <time>2023-10-01T10:36:19Z</time>
      </trkpt>
      <trkpt lat="48.7237" lon="7.1803">
        <ele>272.2</ele>
        <time>2023-10-01T10:36:28Z</time>
      </trkpt>
      <trkpt lat="48.72364" lon="7.18054">
        <ele>272.2</ele>
        <time>2023-10-01T10:36:37Z</time>
      </trkpt>
      <trkpt lat="48.72364" lon="7.18054">
        <ele>272.2</ele>
        <time>2023-10-01T10:36:43Z</time>
      </trkpt>
      <trkpt lat="48.72377" lon="7.18036">
        <ele>272.2</ele>
        <time>2023-10-01T10:36:53Z</time>
      </trkpt>
      <trkpt lat="48.72373" lon="7.18019">
        <ele>272.2</ele>
        <time>2023-10-01T10:37:00Z</time>
      </trkpt>
      <trkpt lat="48.72371" lon="7.18021">
        <ele>272.2</ele>
        <time>2023-10-01T10:37:02Z</time>
      </trkpt>
      <trkpt lat="48.72367" lon="7.18047">
        <ele>272.2</ele>
        <time>2023-10-01T10:37:10Z</time>
      </trkpt>
      <trkpt lat="48.72369" lon="7.18052">
        <ele>272.2</ele>
        <time>2023-10-01T10:37:12Z</time>
      </trkpt>
      <trkpt lat="48.72379" lon="7.18033">
        <ele>272.2</ele>
        <time>2023-10-01T10:37:20Z</time>
      </trkpt>
      <trkpt lat="48.72372" lon="7.18013">
        <ele>272.2</ele>
        <time>2023-10-01T10:37:26Z</time>
      </trkpt>
      <trkpt lat="48.72366" lon="7.18041">
        <ele>272.2</ele>
        <time>2023-10-01T10:37:34Z</time>
      </trkpt>
      <trkpt lat="48.72369" lon="7.18054">
        <ele>272.2</ele>
        <time>2023-10-01T10:37:39Z</time>
      </trkpt>
      <trkpt lat="48.7238" lon="7.18036">
        <ele>272.2</ele>
        <time>2023-10-01T10:37:47Z</time>
      </trkpt>
      <trkpt lat="48.72372" lon="7.18016">
        <ele>272.2</ele>
        <time>2023-10-01T10:37:53Z</time>
      </trkpt>
      <trkpt lat="48.72369" lon="7.18018">
        <ele>272.2</ele>
        <time>2023-10-01T10:37:55Z</time>
      </trkpt>
      <trkpt lat="48.72365" lon="7.18047">
        <ele>272.2</ele>
        <time>2023-10-01T10:38:03Z</time>
      </trkpt>
      <trkpt lat="48.72368" lon="7.18051">
        <ele>272.2</ele>
        <time>2023-10-01T10:38:05Z</time>
      </trkpt>
      <trkpt lat="48.72374" lon="7.18047">
        <ele>272.2</ele>
        <time>2023-10-01T10:38:08Z</time>
      </trkpt>
      <trkpt lat="48.72374" lon="7.18024">
        <ele>272.2</ele>
        <time>2023-10-01T10:38:14Z</time>
      </trkpt>
      <trkpt lat="48.7237" lon="7.18022">
        <ele>272.2</ele>
        <time>2023-10-01T10:38:16Z</time>
      </trkpt>
      <trkpt lat="48.72365" lon="7.18051">
        <ele>272.2</ele>
        <time>2023-10-01T10:38:24Z</time>
      </trkpt>
      <trkpt lat="48.72364" lon="7.18069">
        <ele>272.1</ele>
        <time>2023-10-01T10:38:27Z</time>
      </trkpt>
      <trkpt lat="48.72365" lon="7.18101">
        <ele>271.9</ele>
        <time>2023-10-01T10:38:32Z</time>
      </trkpt>
      <trkpt lat="48.72368" lon="7.18128">
        <ele>271.9</ele>
        <time>2023-10-01T10:38:36Z</time>
      </trkpt>
      <trkpt lat="48.72371" lon="7.18161">
        <ele>271.9</ele>
        <time>2023-10-01T10:38:41Z</time>
      </trkpt>
      <trkpt lat="48.72374" lon="7.18194">
        <ele>271.9</ele>
        <time>2023-10-01T10:38:46Z</time>
      </trkpt>
      <trkpt lat="48.72379" lon="7.18218">
        <ele>271.9</ele>
        <time>2023-10-01T10:38:50Z</time>
      </trkpt>
      <trkpt lat="48.72383" lon="7.18249">
        <ele>271.8</ele>
        <time>2023-10-01T10:38:55Z</time>
      </trkpt>
      <trkpt lat="48.72386" lon="7.18281">
        <ele>271.8</ele>
        <time>2023-10-01T10:39:00Z</time>
      </trkpt>
      <trkpt lat="48.72388" lon="7.18314">
        <ele>271.8</ele>
        <time>2023-10-01T10:39:05Z</time>
      </trkpt>
      <trkpt lat="48.72389" lon="7.18347">
        <ele>271.7</ele>
        <time>2023-10-01T10:39:10Z</time>
      </trkpt>
      <trkpt lat="48.72392" lon="7.18375">
        <ele>271.7</ele>
        <time>2023-10-01T10:39:14Z</time>
      </trkpt>
      <trkpt lat="48.72394" lon="7.18403">
        <ele>271.7</ele>
        <time>2023-10-01T10:39:18Z</time>
      </trkpt>
      <trkpt lat="48.72397" lon="7.18431">
        <ele>271.7</ele>
        <time>2023-10-01T10:39:22Z</time>
      </trkpt>
      <trkpt lat="48.72399" lon="7.18459">
        <ele>271.7</ele>
        <time>2023-10-01T10:39:26Z</time>
      </trkpt>
      <trkpt lat="48.72399" lon="7.18488">
        <ele>271.7</ele>
        <time>2023-10-01T10:39:30Z</time>
      </trkpt>
      <trkpt lat="48.72397" lon="7.18516">
        <ele>271.6</ele>
        <time>2023-10-01T10:39:34Z</time>
      </trkpt>
      <trkpt lat="48.72395" lon="7.18544">
        <ele>271.6</ele>
        <time>2023-10-01T10:39:38Z</time>
      </trkpt>
      <trkpt lat="48.72393" lon="7.18572">
        <ele>271.6</ele>
        <time>2023-10-01T10:39:42Z</time>
      </trkpt>
      <trkpt lat="48.72388" lon="7.186">
        <ele>271.6</ele>
        <time>2023-10-01T10:39:46Z</time>
      </trkpt>
      <trkpt lat="48.72383" lon="7.18627">
        <ele>271.6</ele>
        <time>2023-10-01T10:39:50Z</time>
      </trkpt>
      <trkpt lat="48.72378" lon="7.18654">
        <ele>271.5</ele>
        <time>2023-10-01T10:39:54Z</time>
      </trkpt>
      <trkpt lat="48.72371" lon="7.18679">
        <ele>271.4</ele>
        <time>2023-10-01T10:39:58Z</time>
      </trkpt>
      <trkpt lat="48.72363" lon="7.18705">
        <ele>271.3</ele>
        <time>2023-10-01T10:40:02Z</time>
      </trkpt>
      <trkpt lat="48.72354" lon="7.1873">
        <ele>271.1</ele>
        <time>2023-10-01T10:40:06Z</time>
      </trkpt>
      <trkpt lat="48.72346" lon="7.18755">
        <ele>271.2</ele>
        <time>2023-10-01T10:40:10Z</time>
      </trkpt>
      <trkpt lat="48.72341" lon="7.18767">
        <ele>271.2</ele>
        <time>2023-10-01T10:40:12Z</time>
      </trkpt>
      <trkpt lat="48.72329" lon="7.18794">
        <ele>271.1</ele>
        <time>2023-10-01T10:40:17Z</time>
      </trkpt>
      <trkpt lat="48.72318" lon="7.18825">
        <ele>271.2</ele>
        <time>2023-10-01T10:40:22Z</time>
      </trkpt>
      <trkpt lat="48.72304" lon="7.18851">
        <ele>271.2</ele>
        <time>2023-10-01T10:40:27Z</time>
      </trkpt>
      <trkpt lat="48.72293" lon="7.18874">
        <ele>271.2</ele>
        <time>2023-10-01T10:40:31Z</time>
      </trkpt>
      <trkpt lat="48.72284" lon="7.18903">
        <ele>271.2</ele>
        <time>2023-10-01T10:40:36Z</time>
      </trkpt>
      <trkpt lat="48.72277" lon="7.18932">
        <ele>271.3</ele>
        <time>2023-10-01T10:40:41Z</time>
      </trkpt>
      <trkpt lat="48.7227" lon="7.18962">
        <ele>271.3</ele>
        <time>2023-10-01T10:40:46Z</time>
      </trkpt>
      <trkpt lat="48.72268" lon="7.18993">
        <ele>271.3</ele>
        <time>2023-10-01T10:40:51Z</time>
      </trkpt>
      <trkpt lat="48.72266" lon="7.19024">
        <ele>271.3</ele>
        <time>2023-10-01T10:40:56Z</time>
      </trkpt>
      <trkpt lat="48.72266" lon="7.19057">
        <ele>271.3</ele>
        <time>2023-10-01T10:41:01Z</time>
      </trkpt>
      <trkpt lat="48.72265" lon="7.1909">
        <ele>271.3</ele>
        <time>2023-10-01T10:41:06Z</time>
      </trkpt>
      <trkpt lat="48.72264" lon="7.19115">
        <ele>271.2</ele>
        <time>2023-10-01T10:41:10Z</time>
      </trkpt>
      <trkpt lat="48.72263" lon="7.19149">
        <ele>271.1</ele>
        <time>2023-10-01T10:41:15Z</time>
      </trkpt>
      <trkpt lat="48.72265" lon="7.19177">
        <ele>271.2</ele>
        <time>2023-10-01T10:41:19Z</time>
      </trkpt>
      <trkpt lat="48.72265" lon="7.19205">
        <ele>271.2</ele>
        <time>2023-10-01T10:41:23Z</time>
      </trkpt>
      <trkpt lat="48.72266" lon="7.19233">
        <ele>271.2</ele>
        <time>2023-10-01T10:41:27Z</time>
      </trkpt>
      <trkpt lat="48.72267" lon="7.19267">
        <ele>271.2</ele>
        <time>2023-10-01T10:41:32Z</time>
      </trkpt>
      <trkpt lat="48.72268" lon="7.19296">
        <ele>271.2</ele>
        <time>2023-10-01T10:41:36Z</time>
      </trkpt>
      <trkpt lat="48.72269" lon="7.19303">
        <ele>271.2</ele>
        <time>2023-10-01T10:41:37Z</time>
      </trkpt>
      <trkpt lat="48.7227" lon="7.19325">
        <ele>271.2</ele>
        <time>2023-10-01T10:41:40Z</time>
      </trkpt>
      <trkpt lat="48.72268" lon="7.19352">
        <ele>271.2</ele>
        <time>2023-10-01T10:41:44Z</time>
      </trkpt>
      <trkpt lat="48.72268" lon="7.19386">
        <ele>271.2</ele>
        <time>2023-10-01T10:41:49Z</time>
      </trkpt>
      <trkpt lat="48.72268" lon="7.1942">
        <ele>271.2</ele>
        <time>2023-10-01T10:41:54Z</time>
      </trkpt>
      <trkpt lat="48.72268" lon="7.19454">
        <ele>271.2</ele>
        <time>2023-10-01T10:41:59Z</time>
      </trkpt>
      <trkpt lat="48.72269" lon="7.19482">
        <ele>271.2</ele>
        <time>2023-10-01T10:42:03Z</time>
      </trkpt>
      <trkpt lat="48.72271" lon="7.19508">
        <ele>271.2</ele>
        <time>2023-10-01T10:42:07Z</time>
      </trkpt>
      <trkpt lat="48.72275" lon="7.1954">
        <ele>271.2</ele>
        <time>2023-10-01T10:42:12Z</time>
      </trkpt>
      <trkpt lat="48.72277" lon="7.19554">
        <ele>271.2</ele>
        <time>2023-10-01T10:42:14Z</time>
      </trkpt>
      <trkpt lat="48.72281" lon="7.19576">
        <ele>271.2</ele>
        <time>2023-10-01T10:42:17Z</time>
      </trkpt>
      <trkpt lat="48.72287" lon="7.19603">
        <ele>271.2</ele>
        <time>2023-10-01T10:42:21Z</time>
      </trkpt>
      <trkpt lat="48.72293" lon="7.19629">
        <ele>271.2</ele>
        <time>2023-10-01T10:42:25Z</time>
      </trkpt>
      <trkpt lat="48.72298" lon="7.19655">
        <ele>271.2</ele>
        <time>2023-10-01T10:42:29Z</time>
      </trkpt>
      <trkpt lat="48.72304" lon="7.19682">
        <ele>271.2</ele>
        <time>2023-10-01T10:42:33Z</time>
      </trkpt>
      <trkpt lat="48.72312" lon="7.19713">
        <ele>271.2</ele>
        <time>2023-10-01T10:42:38Z</time>
      </trkpt>
      <trkpt lat="48.72319" lon="7.19738">
        <ele>271.2</ele>
        <time>2023-10-01T10:42:42Z</time>
      </trkpt>
      <trkpt lat="48.72327" lon="7.19769">
        <ele>271.2</ele>
        <time>2023-10-01T10:42:47Z</time>
      </trkpt>
      <trkpt lat="48.72335" lon="7.19799">
        <ele>271.2</ele>
        <time>2023-10-01T10:42:52Z</time>
      </trkpt>
      <trkpt lat="48.72342" lon="7.1983">
        <ele>271.2</ele>
        <time>2023-10-01T10:42:57Z</time>
      </trkpt>
      <trkpt lat="48.72349" lon="7.19862">
        <ele>271.2</ele>
        <time>2023-10-01T10:43:02Z</time>
      </trkpt>
      <trkpt lat="48.72355" lon="7.19888">
        <ele>271.3</ele>
        <time>2023-10-01T10:43:06Z</time>
      </trkpt>
      <trkpt lat="48.72359" lon="7.1992">
        <ele>271.4</ele>
        <time>2023-10-01T10:43:11Z</time>
      </trkpt>
      <trkpt lat="48.72362" lon="7.19952">
        <ele>271.4</ele>
        <time>2023-10-01T10:43:16Z</time>
      </trkpt>
      <trkpt lat="48.72361" lon="7.1998">
        <ele>271.5</ele>
        <time>2023-10-01T10:43:20Z</time>
      </trkpt>
      <trkpt lat="48.72361" lon="7.20012">
        <ele>271.4</ele>
        <time>2023-10-01T10:43:25Z</time>
      </trkpt>
      <trkpt lat="48.72359" lon="7.2004">
        <ele>271.4</ele>
        <time>2023-10-01T10:43:29Z</time>
      </trkpt>
      <trkpt lat="48.72357" lon="7.20068">
        <ele>271.3</ele>
        <time>2023-10-01T10:43:33Z</time>
      </trkpt>
      <trkpt lat="48.72355" lon="7.20095">
        <ele>271.3</ele>
        <time>2023-10-01T10:43:37Z</time>
      </trkpt>
      <trkpt lat="48.72355" lon="7.20109">
        <ele>271.3</ele>
        <time>2023-10-01T10:43:39Z</time>
      </trkpt>
      <trkpt lat="48.72353" lon="7.20142">
        <ele>271.3</ele>
        <time>2023-10-01T10:43:44Z</time>
      </trkpt>
      <trkpt lat="48.72353" lon="7.20176">
        <ele>271.3</ele>
        <time>2023-10-01T10:43:49Z</time>
      </trkpt>
      <trkpt lat="48.72355" lon="7.2021">
        <ele>271.4</ele>
        <time>2023-10-01T10:43:54Z</time>
      </trkpt>
      <trkpt lat="48.72355" lon="7.20242">
        <ele>271.4</ele>
        <time>2023-10-01T10:43:59Z</time>
      </trkpt>
      <trkpt lat="48.72354" lon="7.2027">
        <ele>271.5</ele>
        <time>2023-10-01T10:44:03Z</time>
      </trkpt>
      <trkpt lat="48.72354" lon="7.20304">
        <ele>271.5</ele>
        <time>2023-10-01T10:44:08Z</time>
      </trkpt>
      <trkpt lat="48.72354" lon="7.20325">
        <ele>271.5</ele>
        <time>2023-10-01T10:44:11Z</time>
      </trkpt>
      <trkpt lat="48.72352" lon="7.20354">
        <ele>271.4</ele>
        <time>2023-10-01T10:44:15Z</time>
      </trkpt>
      <trkpt lat="48.7235" lon="7.20382">
        <ele>271.5</ele>
        <time>2023-10-01T10:44:19Z</time>
      </trkpt>
      <trkpt lat="48.72348" lon="7.2041">
        <ele>271.5</ele>
        <time>2023-10-01T10:44:23Z</time>
      </trkpt>
      <trkpt lat="48.72342" lon="7.20441">
        <ele>271.5</ele>
        <time>2023-10-01T10:44:28Z</time>
      </trkpt>
      <trkpt lat="48.72339" lon="7.20473">
        <ele>271.5</ele>
        <time>2023-10-01T10:44:33Z</time>
      </trkpt>
      <trkpt lat="48.72333" lon="7.20504">
        <ele>271.5</ele>
        <time>2023-10-01T10:44:38Z</time>
      </trkpt>
      <trkpt lat="48.7233" lon="7.2051">
        <ele>271.5</ele>
        <time>2023-10-01T10:44:39Z</time>
      </trkpt>
      <trkpt lat="48.72323" lon="7.20537">
        <ele>271.5</ele>
        <time>2023-10-01T10:44:43Z</time>
      </trkpt>
      <trkpt lat="48.72315" lon="7.20563">
        <ele>271.6</ele>
        <time>2023-10-01T10:44:47Z</time>
      </trkpt>
      <trkpt lat="48.72304" lon="7.20589">
        <ele>271.5</ele>
        <time>2023-10-01T10:44:51Z</time>
      </trkpt>
      <trkpt lat="48.72294" lon="7.20613">
        <ele>271.5</ele>
        <time>2023-10-01T10:44:55Z</time>
      </trkpt>
      <trkpt lat="48.72287" lon="7.20638">
        <ele>271.6</ele>
        <time>2023-10-01T10:44:59Z</time>
      </trkpt>
      <trkpt lat="48.72278" lon="7.20663">
        <ele>271.5</ele>
        <time>2023-10-01T10:45:03Z</time>
      </trkpt>
      <trkpt lat="48.72271" lon="7.20694">
        <ele>271.5</ele>
        <time>2023-10-01T10:45:08Z</time>
      </trkpt>
      <trkpt lat="48.72267" lon="7.20706">
        <ele>271.5</ele>
        <time>2023-10-01T10:45:10Z</time>
      </trkpt>
      <trkpt lat="48.72259" lon="7.20731">
        <ele>271.5</ele>
        <time>2023-10-01T10:45:14Z</time>
      </trkpt>
      <trkpt lat="48.72251" lon="7.20758">
        <ele>271.5</ele>
        <time>2023-10-01T10:45:18Z</time>
      </trkpt>
      <trkpt lat="48.72244" lon="7.20785">
        <ele>271.5</ele>
        <time>2023-10-01T10:45:22Z</time>
      </trkpt>
      <trkpt lat="48.72237" lon="7.20811">
        <ele>271.6</ele>
        <time>2023-10-01T10:45:26Z</time>
      </trkpt>
      <trkpt lat="48.72232" lon="7.20837">
        <ele>271.6</ele>
        <time>2023-10-01T10:45:30Z</time>
      </trkpt>
      <trkpt lat="48.72228" lon="7.20857">
        <ele>271.6</ele>
        <time>2023-10-01T10:45:33Z</time>
      </trkpt>
      <trkpt lat="48.72225" lon="7.20889">
        <ele>271.6</ele>
        <time>2023-10-01T10:45:38Z</time>
      </trkpt>
      <trkpt lat="48.72221" lon="7.20921">
        <ele>271.6</ele>
        <time>2023-10-01T10:45:43Z</time>
      </trkpt>
      <trkpt lat="48.72215" lon="7.20955">
        <ele>271.6</ele>
        <time>2023-10-01T10:45:48Z</time>
      </trkpt>
      <trkpt lat="48.72211" lon="7.20982">
        <ele>271.7</ele>
        <time>2023-10-01T10:45:52Z</time>
      </trkpt>
      <trkpt lat="48.72203" lon="7.21008">
        <ele>271.7</ele>
        <time>2023-10-01T10:45:56Z</time>
      </trkpt>
      <trkpt lat="48.72193" lon="7.21039">
        <ele>271.7</ele>
        <time>2023-10-01T10:46:01Z</time>
      </trkpt>
      <trkpt lat="48.72185" lon="7.21064">
        <ele>271.6</ele>
        <time>2023-10-01T10:46:05Z</time>
      </trkpt>
      <trkpt lat="48.72174" lon="7.21088">
        <ele>271.6</ele>
        <time>2023-10-01T10:46:09Z</time>
      </trkpt>
      <trkpt lat="48.7217" lon="7.21094">
        <ele>271.5</ele>
        <time>2023-10-01T10:46:10Z</time>
      </trkpt>
      <trkpt lat="48.72158" lon="7.21118">
        <ele>271.5</ele>
        <time>2023-10-01T10:46:15Z</time>
      </trkpt>
      <trkpt lat="48.72161" lon="7.21111">
        <ele>271.4</ele>
        <time>2023-10-01T10:46:18Z</time>
      </trkpt>
      <trkpt lat="48.72173" lon="7.21081">
        <ele>271.5</ele>
        <time>2023-10-01T10:46:23Z</time>
      </trkpt>
      <trkpt lat="48.72182" lon="7.21057">
        <ele>271.6</ele>
        <time>2023-10-01T10:46:27Z</time>
      </trkpt>
      <trkpt lat="48.7219" lon="7.21027">
        <ele>271.7</ele>
        <time>2023-10-01T10:46:32Z</time>
      </trkpt>
      <trkpt lat="48.72199" lon="7.21">
        <ele>271.7</ele>
        <time>2023-10-01T10:46:36Z</time>
      </trkpt>
      <trkpt lat="48.72209" lon="7.20971">
        <ele>271.7</ele>
        <time>2023-10-01T10:46:40Z</time>
      </trkpt>
      <trkpt lat="48.72218" lon="7.20943">
        <ele>271.6</ele>
        <time>2023-10-01T10:46:44Z</time>
      </trkpt>
      <trkpt lat="48.72226" lon="7.20914">
        <ele>271.6</ele>
        <time>2023-10-01T10:46:48Z</time>
      </trkpt>
      <trkpt lat="48.72231" lon="7.20886">
        <ele>271.6</ele>
        <time>2023-10-01T10:46:52Z</time>
      </trkpt>
      <trkpt lat="48.72235" lon="7.20859">
        <ele>271.6</ele>
        <time>2023-10-01T10:46:56Z</time>
      </trkpt>
      <trkpt lat="48.72238" lon="7.20832">
        <ele>271.6</ele>
        <time>2023-10-01T10:47:00Z</time>
      </trkpt>
      <trkpt lat="48.72237" lon="7.20802">
        <ele>271.6</ele>
        <time>2023-10-01T10:47:04Z</time>
      </trkpt>
      <trkpt lat="48.72236" lon="7.20773">
        <ele>271.5</ele>
        <time>2023-10-01T10:47:08Z</time>
      </trkpt>
      <trkpt lat="48.7224" lon="7.2074">
        <ele>271.5</ele>
        <time>2023-10-01T10:47:13Z</time>
      </trkpt>
      <trkpt lat="48.72247" lon="7.20714">
        <ele>271.5</ele>
        <time>2023-10-01T10:47:17Z</time>
      </trkpt>
      <trkpt lat="48.72256" lon="7.20688">
        <ele>271.5</ele>
        <time>2023-10-01T10:47:21Z</time>
      </trkpt>
      <trkpt lat="48.72263" lon="7.2067">
        <ele>271.5</ele>
        <time>2023-10-01T10:47:24Z</time>
      </trkpt>
      <trkpt lat="48.72271" lon="7.20651">
        <ele>271.5</ele>
        <time>2023-10-01T10:47:27Z</time>
      </trkpt>
      <trkpt lat="48.72284" lon="7.20627">
        <ele>271.6</ele>
        <time>2023-10-01T10:47:32Z</time>
      </trkpt>
      <trkpt lat="48.72289" lon="7.20619">
        <ele>271.5</ele>
        <time>2023-10-01T10:47:36Z</time>
      </trkpt>
      <trkpt lat="48.72287" lon="7.2062">
        <ele>271.5</ele>
        <time>2023-10-01T10:47:38Z</time>
      </trkpt>
      <trkpt lat="48.72278" lon="7.20644">
        <ele>271.5</ele>
        <time>2023-10-01T10:47:46Z</time>
      </trkpt>
      <trkpt lat="48.72271" lon="7.20672">
        <ele>271.5</ele>
        <time>2023-10-01T10:47:55Z</time>
      </trkpt>
      <trkpt lat="48.72264" lon="7.207">
        <ele>271.5</ele>
        <time>2023-10-01T10:48:04Z</time>
      </trkpt>
      <trkpt lat="48.7226" lon="7.20727">
        <ele>271.5</ele>
        <time>2023-10-01T10:48:11Z</time>
      </trkpt>
      <trkpt lat="48.72254" lon="7.20755">
        <ele>271.5</ele>
        <time>2023-10-01T10:48:19Z</time>
      </trkpt>
      <trkpt lat="48.72247" lon="7.20785">
        <ele>271.6</ele>
        <time>2023-10-01T10:48:27Z</time>
      </trkpt>
      <trkpt lat="48.72237" lon="7.20816">
        <ele>271.6</ele>
        <time>2023-10-01T10:48:32Z</time>
      </trkpt>
      <trkpt lat="48.7223" lon="7.20843">
        <ele>271.6</ele>
        <time>2023-10-01T10:48:36Z</time>
      </trkpt>
      <trkpt lat="48.72225" lon="7.20875">
        <ele>271.6</ele>
        <time>2023-10-01T10:48:41Z</time>
      </trkpt>
      <trkpt lat="48.72223" lon="7.20902">
        <ele>271.6</ele>
        <time>2023-10-01T10:48:45Z</time>
      </trkpt>
      <trkpt lat="48.7222" lon="7.2093">
        <ele>271.6</ele>
        <time>2023-10-01T10:48:49Z</time>
      </trkpt>
      <trkpt lat="48.72214" lon="7.20961">
        <ele>271.7</ele>
        <time>2023-10-01T10:48:54Z</time>
      </trkpt>
      <trkpt lat="48.72207" lon="7.20994">
        <ele>271.7</ele>
        <time>2023-10-01T10:48:59Z</time>
      </trkpt>
      <trkpt lat="48.722" lon="7.21024">
        <ele>271.7</ele>
        <time>2023-10-01T10:49:04Z</time>
      </trkpt>
      <trkpt lat="48.72191" lon="7.21055">
        <ele>271.6</ele>
        <time>2023-10-01T10:49:09Z</time>
      </trkpt>
      <trkpt lat="48.72182" lon="7.21079">
        <ele>271.5</ele>
        <time>2023-10-01T10:49:13Z</time>
      </trkpt>
      <trkpt lat="48.72173" lon="7.21097">
        <ele>271.5</ele>
        <time>2023-10-01T10:49:16Z</time>
      </trkpt>
      <trkpt lat="48.72163" lon="7.2112">
        <ele>271.4</ele>
        <time>2023-10-01T10:49:20Z</time>
      </trkpt>
      <trkpt lat="48.72149" lon="7.21146">
        <ele>271.4</ele>
        <time>2023-10-01T10:49:25Z</time>
      </trkpt>
      <trkpt lat="48.72134" lon="7.21165">
        <ele>271.4</ele>
        <time>2023-10-01T10:49:29Z</time>
      </trkpt>
      <trkpt lat="48.7212" lon="7.21186">
        <ele>271.4</ele>
        <time>2023-10-01T10:49:33Z</time>
      </trkpt>
      <trkpt lat="48.72107" lon="7.21207">
        <ele>271.5</ele>
        <time>2023-10-01T10:49:37Z</time>
      </trkpt>
      <trkpt lat="48.72096" lon="7.21229">
        <ele>271.5</ele>
        <time>2023-10-01T10:49:41Z</time>
      </trkpt>
      <trkpt lat="48.72086" lon="7.21252">
        <ele>271.4</ele>
        <time>2023-10-01T10:49:45Z</time>
      </trkpt>
      <trkpt lat="48.72076" lon="7.21279">
        <ele>271.4</ele>
        <time>2023-10-01T10:49:50Z</time>
      </trkpt>
      <trkpt lat="48.72067" lon="7.2131">
        <ele>271.4</ele>
        <time>2023-10-01T10:49:55Z</time>
      </trkpt>
      <trkpt lat="48.72057" lon="7.21334">
        <ele>271.4</ele>
        <time>2023-10-01T10:49:59Z</time>
      </trkpt>
      <trkpt lat="48.72046" lon="7.21354">
        <ele>271.5</ele>
        <time>2023-10-01T10:50:03Z</time>
      </trkpt>
      <trkpt lat="48.72048" lon="7.21338">
        <ele>271.5</ele>
        <time>2023-10-01T10:50:07Z</time>
      </trkpt>
      <trkpt lat="48.72056" lon="7.2131">
        <ele>271.4</ele>
        <time>2023-10-01T10:50:11Z</time>
      </trkpt>
      <trkpt lat="48.72066" lon="7.21284">
        <ele>271.4</ele>
        <time>2023-10-01T10:50:15Z</time>
      </trkpt>
      <trkpt lat="48.72075" lon="7.2126">
        <ele>271.4</ele>
        <time>2023-10-01T10:50:19Z</time>
      </trkpt>
      <trkpt lat="48.72085" lon="7.21237">
        <ele>271.4</ele>
        <time>2023-10-01T10:50:23Z</time>
      </trkpt>
      <trkpt lat="48.72098" lon="7.21209">
        <ele>271.5</ele>
        <time>2023-10-01T10:50:28Z</time>
      </trkpt>
      <trkpt lat="48.72107" lon="7.21179">
        <ele>271.4</ele>
        <time>2023-10-01T10:50:33Z</time>
      </trkpt>
      <trkpt lat="48.72121" lon="7.21152">
        <ele>271.4</ele>
        <time>2023-10-01T10:50:38Z</time>
      </trkpt>
      <trkpt lat="48.72134" lon="7.21128">
        <ele>271.4</ele>
        <time>2023-10-01T10:50:43Z</time>
      </trkpt>
      <trkpt lat="48.72145" lon="7.21103">
        <ele>271.4</ele>
        <time>2023-10-01T10:50:48Z</time>
      </trkpt>
      <trkpt lat="48.72153" lon="7.21072">
        <ele>271.5</ele>
        <time>2023-10-01T10:50:53Z</time>
      </trkpt>
      <trkpt lat="48.72164" lon="7.21045">
        <ele>271.6</ele>
        <time>2023-10-01T10:50:58Z</time>
      </trkpt>
      <trkpt lat="48.72174" lon="7.21016">
        <ele>271.7</ele>
        <time>2023-10-01T10:51:03Z</time>
      </trkpt>
      <trkpt lat="48.72184" lon="7.20992">
        <ele>271.7</ele>
        <time>2023-10-01T10:51:07Z</time>
      </trkpt>
      <trkpt lat="48.72185" lon="7.20987">
        <ele>271.7</ele>
        <time>2023-10-01T10:51:08Z</time>
      </trkpt>
      <trkpt lat="48.72195" lon="7.20962">
        <ele>271.7</ele>
        <time>2023-10-01T10:51:12Z</time>
      </trkpt>
      <trkpt lat="48.72203" lon="7.20936">
        <ele>271.6</ele>
        <time>2023-10-01T10:51:16Z</time>
      </trkpt>
      <trkpt lat="48.72207" lon="7.20917">
        <ele>271.6</ele>
        <time>2023-10-01T10:51:19Z</time>
      </trkpt>
      <trkpt lat="48.72213" lon="7.20891">
        <ele>271.6</ele>
        <time>2023-10-01T10:51:23Z</time>
      </trkpt>
      <trkpt lat="48.72219" lon="7.20864">
        <ele>271.6</ele>
        <time>2023-10-01T10:51:27Z</time>
      </trkpt>
      <trkpt lat="48.72222" lon="7.20833">
        <ele>271.6</ele>
        <time>2023-10-01T10:51:32Z</time>
      </trkpt>
      <trkpt lat="48.72229" lon="7.20803">
        <ele>271.6</ele>
        <time>2023-10-01T10:51:37Z</time>
      </trkpt>
      <trkpt lat="48.72235" lon="7.20777">
        <ele>271.6</ele>
        <time>2023-10-01T10:51:41Z</time>
      </trkpt>
      <trkpt lat="48.72241" lon="7.20751">
        <ele>271.5</ele>
        <time>2023-10-01T10:51:45Z</time>
      </trkpt>
      <trkpt lat="48.72249" lon="7.2072">
        <ele>271.5</ele>
        <time>2023-10-01T10:51:50Z</time>
      </trkpt>
      <trkpt lat="48.72255" lon="7.20695">
        <ele>271.5</ele>
        <time>2023-10-01T10:51:54Z</time>
      </trkpt>
      <trkpt lat="48.72262" lon="7.20672">
        <ele>271.5</ele>
        <time>2023-10-01T10:51:58Z</time>
      </trkpt>
      <trkpt lat="48.72275" lon="7.20644">
        <ele>271.5</ele>
        <time>2023-10-01T10:52:03Z</time>
      </trkpt>
      <trkpt lat="48.72284" lon="7.20621">
        <ele>271.6</ele>
        <time>2023-10-01T10:52:07Z</time>
      </trkpt>
      <trkpt lat="48.72294" lon="7.2059">
        <ele>271.5</ele>
        <time>2023-10-01T10:52:12Z</time>
      </trkpt>
      <trkpt lat="48.72301" lon="7.20565">
        <ele>271.6</ele>
        <time>2023-10-01T10:52:16Z</time>
      </trkpt>
      <trkpt lat="48.7231" lon="7.20538">
        <ele>271.6</ele>
        <time>2023-10-01T10:52:21Z</time>
      </trkpt>
      <trkpt lat="48.7231" lon="7.20537">
        <ele>271.6</ele>
        <time>2023-10-01T10:52:22Z</time>
      </trkpt>
      <trkpt lat="48.72311" lon="7.20552">
        <ele>271.6</ele>
        <time>2023-10-01T10:52:25Z</time>
      </trkpt>
      <trkpt lat="48.72306" lon="7.20566">
        <ele>271.6</ele>
        <time>2023-10-01T10:52:27Z</time>
      </trkpt>
      <trkpt lat="48.72297" lon="7.20594">
        <ele>271.5</ele>
        <time>2023-10-01T10:52:31Z</time>
      </trkpt>
      <trkpt lat="48.72287" lon="7.20619">
        <ele>271.6</ele>
        <time>2023-10-01T10:52:35Z</time>
      </trkpt>
      <trkpt lat="48.72284" lon="7.20622">
        <ele>271.6</ele>
        <time>2023-10-01T10:52:37Z</time>
      </trkpt>
      <trkpt lat="48.72291" lon="7.20596">
        <ele>271.5</ele>
        <time>2023-10-01T10:52:42Z</time>
      </trkpt>
      <trkpt lat="48.723" lon="7.2057">
        <ele>271.5</ele>
        <time>2023-10-01T10:52:46Z</time>
      </trkpt>
      <trkpt lat="48.72302" lon="7.20564">
        <ele>271.6</ele>
        <time>2023-10-01T10:52:47Z</time>
      </trkpt>
      <trkpt lat="48.72313" lon="7.20534">
        <ele>271.5</ele>
        <time>2023-10-01T10:52:52Z</time>
      </trkpt>
      <trkpt lat="48.7232" lon="7.20507">
        <ele>271.5</ele>
        <time>2023-10-01T10:52:56Z</time>
      </trkpt>
      <trkpt lat="48.72329" lon="7.20482">
        <ele>271.5</ele>
        <time>2023-10-01T10:53:00Z</time>
      </trkpt>
      <trkpt lat="48.72338" lon="7.20457">
        <ele>271.5</ele>
        <time>2023-10-01T10:53:04Z</time>
      </trkpt>
      <trkpt lat="48.72345" lon="7.2043">
        <ele>271.5</ele>
        <time>2023-10-01T10:53:08Z</time>
      </trkpt>
      <trkpt lat="48.72349" lon="7.20402">
        <ele>271.5</ele>
        <time>2023-10-01T10:53:12Z</time>
      </trkpt>
      <trkpt lat="48.7235" lon="7.20373">
        <ele>271.5</ele>
        <time>2023-10-01T10:53:16Z</time>
      </trkpt>
      <trkpt lat="48.72353" lon="7.20345">
        <ele>271.4</ele>
        <time>2023-10-01T10:53:20Z</time>
      </trkpt>
      <trkpt lat="48.72353" lon="7.20331">
        <ele>271.5</ele>
        <time>2023-10-01T10:53:22Z</time>
      </trkpt>
      <trkpt lat="48.72354" lon="7.20298">
        <ele>271.5</ele>
        <time>2023-10-01T10:53:27Z</time>
      </trkpt>
      <trkpt lat="48.72352" lon="7.20271">
        <ele>271.5</ele>
        <time>2023-10-01T10:53:31Z</time>
      </trkpt>
      <trkpt lat="48.72351" lon="7.20244">
        <ele>271.4</ele>
        <time>2023-10-01T10:53:35Z</time>
      </trkpt>
      <trkpt lat="48.72351" lon="7.20211">
        <ele>271.4</ele>
        <time>2023-10-01T10:53:40Z</time>
      </trkpt>
      <trkpt lat="48.72349" lon="7.20178">
        <ele>271.3</ele>
        <time>2023-10-01T10:53:45Z</time>
      </trkpt>
      <trkpt lat="48.72347" lon="7.20158">
        <ele>271.3</ele>
        <time>2023-10-01T10:53:48Z</time>
      </trkpt>
      <trkpt lat="48.72346" lon="7.20129">
        <ele>271.3</ele>
        <time>2023-10-01T10:53:52Z</time>
      </trkpt>
      <trkpt lat="48.72347" lon="7.201">
        <ele>271.3</ele>
        <time>2023-10-01T10:53:56Z</time>
      </trkpt>
      <trkpt lat="48.72347" lon="7.2007">
        <ele>271.3</ele>
        <time>2023-10-01T10:54:00Z</time>
      </trkpt>
      <trkpt lat="48.72352" lon="7.20043">
        <ele>271.4</ele>
        <time>2023-10-01T10:54:04Z</time>
      </trkpt>
      <trkpt lat="48.72351" lon="7.2001">
        <ele>271.4</ele>
        <time>2023-10-01T10:54:09Z</time>
      </trkpt>
      <trkpt lat="48.7235" lon="7.19977">
        <ele>271.5</ele>
        <time>2023-10-01T10:54:14Z</time>
      </trkpt>
      <trkpt lat="48.72349" lon="7.19971">
        <ele>271.5</ele>
        <time>2023-10-01T10:54:15Z</time>
      </trkpt>
      <trkpt lat="48.72346" lon="7.1994">
        <ele>271.4</ele>
        <time>2023-10-01T10:54:20Z</time>
      </trkpt>
      <trkpt lat="48.72342" lon="7.1992">
        <ele>271.4</ele>
        <time>2023-10-01T10:54:23Z</time>
      </trkpt>
      <trkpt lat="48.72335" lon="7.19893">
        <ele>271.3</ele>
        <time>2023-10-01T10:54:27Z</time>
      </trkpt>
      <trkpt lat="48.72333" lon="7.1988">
        <ele>271.3</ele>
        <time>2023-10-01T10:54:29Z</time>
      </trkpt>
      <trkpt lat="48.72325" lon="7.19855">
        <ele>271.2</ele>
        <time>2023-10-01T10:54:33Z</time>
      </trkpt>
      <trkpt lat="48.72318" lon="7.19828">
        <ele>271.2</ele>
        <time>2023-10-01T10:54:37Z</time>
      </trkpt>
      <trkpt lat="48.72312" lon="7.19797">
        <ele>271.2</ele>
        <time>2023-10-01T10:54:42Z</time>
      </trkpt>
      <trkpt lat="48.72307" lon="7.1977">
        <ele>271.2</ele>
        <time>2023-10-01T10:54:46Z</time>
      </trkpt>
      <trkpt lat="48.723" lon="7.19739">
        <ele>271.2</ele>
        <time>2023-10-01T10:54:51Z</time>
      </trkpt>
      <trkpt lat="48.72295" lon="7.19707">
        <ele>271.2</ele>
        <time>2023-10-01T10:54:56Z</time>
      </trkpt>
      <trkpt lat="48.72289" lon="7.19676">
        <ele>271.2</ele>
        <time>2023-10-01T10:55:01Z</time>
      </trkpt>
      <trkpt lat="48.72283" lon="7.19645">
        <ele>271.2</ele>
        <time>2023-10-01T10:55:06Z</time>
      </trkpt>
      <trkpt lat="48.72276" lon="7.19613">
        <ele>271.2</ele>
        <time>2023-10-01T10:55:11Z</time>
      </trkpt>
      <trkpt lat="48.72271" lon="7.19587">
        <ele>271.2</ele>
        <time>2023-10-01T10:55:15Z</time>
      </trkpt>
      <trkpt lat="48.72269" lon="7.19559">
        <ele>271.2</ele>
        <time>2023-10-01T10:55:19Z</time>
      </trkpt>
      <trkpt lat="48.72267" lon="7.19532">
        <ele>271.2</ele>
        <time>2023-10-01T10:55:23Z</time>
      </trkpt>
      <trkpt lat="48.72264" lon="7.195">
        <ele>271.2</ele>
        <time>2023-10-01T10:55:28Z</time>
      </trkpt>
      <trkpt lat="48.7226" lon="7.19468">
        <ele>271.2</ele>
        <time>2023-10-01T10:55:33Z</time>
      </trkpt>
      <trkpt lat="48.7226" lon="7.19437">
        <ele>271.2</ele>
        <time>2023-10-01T10:55:38Z</time>
      </trkpt>
      <trkpt lat="48.72262" lon="7.19404">
        <ele>271.2</ele>
        <time>2023-10-01T10:55:43Z</time>
      </trkpt>
      <trkpt lat="48.72261" lon="7.19373">
        <ele>271.2</ele>
        <time>2023-10-01T10:55:48Z</time>
      </trkpt>
      <trkpt lat="48.72261" lon="7.19341">
        <ele>271.2</ele>
        <time>2023-10-01T10:55:53Z</time>
      </trkpt>
      <trkpt lat="48.72262" lon="7.19307">
        <ele>271.2</ele>
        <time>2023-10-01T10:55:58Z</time>
      </trkpt>
      <trkpt lat="48.72265" lon="7.1928">
        <ele>271.2</ele>
        <time>2023-10-01T10:56:02Z</time>
      </trkpt>
      <trkpt lat="48.72266" lon="7.19253">
        <ele>271.2</ele>
        <time>2023-10-01T10:56:06Z</time>
      </trkpt>
      <trkpt lat="48.72266" lon="7.19219">
        <ele>271.2</ele>
        <time>2023-10-01T10:56:11Z</time>
      </trkpt>
      <trkpt lat="48.72265" lon="7.192">
        <ele>271.2</ele>
        <time>2023-10-01T10:56:14Z</time>
      </trkpt>
      <trkpt lat="48.72266" lon="7.19167">
        <ele>271.2</ele>
        <time>2023-10-01T10:56:19Z</time>
      </trkpt>
      <trkpt lat="48.72263" lon="7.19135">
        <ele>271.1</ele>
        <time>2023-10-01T10:56:24Z</time>
      </trkpt>
      <trkpt lat="48.72264" lon="7.19103">
        <ele>271.3</ele>
        <time>2023-10-01T10:56:29Z</time>
      </trkpt>
      <trkpt lat="48.72263" lon="7.19096">
        <ele>271.3</ele>
        <time>2023-10-01T10:56:30Z</time>
      </trkpt>
      <trkpt lat="48.72262" lon="7.19064">
        <ele>271.3</ele>
        <time>2023-10-01T10:56:35Z</time>
      </trkpt>
      <trkpt lat="48.72261" lon="7.19037">
        <ele>271.3</ele>
        <time>2023-10-01T10:56:39Z</time>
      </trkpt>
      <trkpt lat="48.72261" lon="7.19008">
        <ele>271.2</ele>
        <time>2023-10-01T10:56:43Z</time>
      </trkpt>
      <trkpt lat="48.72262" lon="7.19001">
        <ele>271.3</ele>
        <time>2023-10-01T10:56:44Z</time>
      </trkpt>
      <trkpt lat="48.72264" lon="7.18974">
        <ele>271.3</ele>
        <time>2023-10-01T10:56:48Z</time>
      </trkpt>
      <trkpt lat="48.72269" lon="7.18942">
        <ele>271.3</ele>
        <time>2023-10-01T10:56:53Z</time>
      </trkpt>
      <trkpt lat="48.72271" lon="7.18908">
        <ele>271.2</ele>
        <time>2023-10-01T10:56:58Z</time>
      </trkpt>
      <trkpt lat="48.72276" lon="7.1888">
        <ele>271.2</ele>
        <time>2023-10-01T10:57:02Z</time>
      </trkpt>
      <trkpt lat="48.72287" lon="7.18853">
        <ele>271.2</ele>
        <time>2023-10-01T10:57:06Z</time>
      </trkpt>
      <trkpt lat="48.72297" lon="7.18828">
        <ele>271.2</ele>
        <time>2023-10-01T10:57:10Z</time>
      </trkpt>
      <trkpt lat="48.72307" lon="7.18805">
        <ele>271.2</ele>
        <time>2023-10-01T10:57:14Z</time>
      </trkpt>
      <trkpt lat="48.72319" lon="7.18777">
        <ele>271.2</ele>
        <time>2023-10-01T10:57:19Z</time>
      </trkpt>
      <trkpt lat="48.7233" lon="7.18752">
        <ele>271.2</ele>
        <time>2023-10-01T10:57:23Z</time>
      </trkpt>
      <trkpt lat="48.7234" lon="7.18727">
        <ele>271.2</ele>
        <time>2023-10-01T10:57:27Z</time>
      </trkpt>
      <trkpt lat="48.72353" lon="7.18703">
        <ele>271.2</ele>
        <time>2023-10-01T10:57:33Z</time>
      </trkpt>
      <trkpt lat="48.72365" lon="7.18682">
        <ele>271.4</ele>
        <time>2023-10-01T10:57:43Z</time>
      </trkpt>
      <trkpt lat="48.72372" lon="7.18655">
        <ele>271.5</ele>
        <time>2023-10-01T10:57:54Z</time>
      </trkpt>
      <trkpt lat="48.7238" lon="7.18628">
        <ele>271.6</ele>
        <time>2023-10-01T10:58:05Z</time>
      </trkpt>
      <trkpt lat="48.72391" lon="7.18606">
        <ele>271.6</ele>
        <time>2023-10-01T10:58:14Z</time>
      </trkpt>
      <trkpt lat="48.72399" lon="7.18578">
        <ele>271.6</ele>
        <time>2023-10-01T10:58:23Z</time>
      </trkpt>
      <trkpt lat="48.72401" lon="7.18559">
        <ele>271.6</ele>
        <time>2023-10-01T10:58:27Z</time>
      </trkpt>
      <trkpt lat="48.72403" lon="7.18525">
        <ele>271.6</ele>
        <time>2023-10-01T10:58:32Z</time>
      </trkpt>
      <trkpt lat="48.72406" lon="7.18494">
        <ele>271.7</ele>
        <time>2023-10-01T10:58:37Z</time>
      </trkpt>
      <trkpt lat="48.72404" lon="7.1846">
        <ele>271.7</ele>
        <time>2023-10-01T10:58:42Z</time>
      </trkpt>
      <trkpt lat="48.72401" lon="7.18432">
        <ele>271.7</ele>
        <time>2023-10-01T10:58:46Z</time>
      </trkpt>
      <trkpt lat="48.72399" lon="7.184">
        <ele>271.7</ele>
        <time>2023-10-01T10:58:51Z</time>
      </trkpt>
      <trkpt lat="48.72396" lon="7.18368">
        <ele>271.7</ele>
        <time>2023-10-01T10:58:56Z</time>
      </trkpt>
      <trkpt lat="48.72391" lon="7.18341">
        <ele>271.7</ele>
        <time>2023-10-01T10:59:00Z</time>
      </trkpt>
      <trkpt lat="48.72384" lon="7.18309">
        <ele>271.8</ele>
        <time>2023-10-01T10:59:05Z</time>
      </trkpt>
      <trkpt lat="48.72378" lon="7.18282">
        <ele>271.8</ele>
        <time>2023-10-01T10:59:09Z</time>
      </trkpt>
      <trkpt lat="48.72374" lon="7.18249">
        <ele>271.8</ele>
        <time>2023-10-01T10:59:14Z</time>
      </trkpt>
      <trkpt lat="48.72369" lon="7.18216">
        <ele>271.9</ele>
        <time>2023-10-01T10:59:19Z</time>
      </trkpt>
      <trkpt lat="48.72365" lon="7.18183">
        <ele>271.9</ele>
        <time>2023-10-01T10:59:24Z</time>
      </trkpt>
      <trkpt lat="48.72362" lon="7.18153">
        <ele>271.9</ele>
        <time>2023-10-01T10:59:28Z</time>
      </trkpt>
      <trkpt lat="48.72359" lon="7.18139">
        <ele>271.9</ele>
        <time>2023-10-01T10:59:30Z</time>
      </trkpt>
      <trkpt lat="48.72357" lon="7.18111">
        <ele>271.9</ele>
        <time>2023-10-01T10:59:34Z</time>
      </trkpt>
      <trkpt lat="48.72358" lon="7.18084">
        <ele>271.9</ele>
        <time>2023-10-01T10:59:38Z</time>
      </trkpt>
      <trkpt lat="48.72357" lon="7.18077">
        <ele>272</ele>
        <time>2023-10-01T10:59:39Z</time>
      </trkpt>
      <trkpt lat="48.72358" lon="7.18064">
        <ele>271.9</ele>
        <time>2023-10-01T10:59:41Z</time>
      </trkpt>
      <trkpt lat="48.7236" lon="7.18057">
        <ele>271.9</ele>
        <time>2023-10-01T10:59:45Z</time>
      </trkpt>
      <trkpt lat="48.72365" lon="7.18084">
        <ele>271.9</ele>
        <time>2023-10-01T10:59:49Z</time>
      </trkpt>
      <trkpt lat="48.72367" lon="7.18091">
        <ele>271.9</ele>
        <time>2023-10-01T10:59:50Z</time>
      </trkpt>
      <trkpt lat="48.72371" lon="7.18104">
        <ele>271.9</ele>
        <time>2023-10-01T10:59:52Z</time>
      </trkpt>
      <trkpt lat="48.72374" lon="7.18136">
        <ele>271.9</ele>
        <time>2023-10-01T10:59:57Z</time>
      </trkpt>
      <trkpt lat="48.72378" lon="7.18167">
        <ele>271.9</ele>
        <time>2023-10-01T11:00:02Z</time>
      </trkpt>
      <trkpt lat="48.72381" lon="7.18198">
        <ele>271.9</ele>
        <time>2023-10-01T11:00:07Z</time>
      </trkpt>
      <trkpt lat="48.72387" lon="7.18227">
        <ele>271.8</ele>
        <time>2023-10-01T11:00:12Z</time>
      </trkpt>
      <trkpt lat="48.72393" lon="7.18257">
        <ele>271.8</ele>
        <time>2023-10-01T11:00:17Z</time>
      </trkpt>
      <trkpt lat="48.72399" lon="7.18286">
        <ele>271.8</ele>
        <time>2023-10-01T11:00:22Z</time>
      </trkpt>
      <trkpt lat="48.72402" lon="7.18316">
        <ele>271.7</ele>
        <time>2023-10-01T11:00:27Z</time>
      </trkpt>
      <trkpt lat="48.72405" lon="7.18346">
        <ele>271.7</ele>
        <time>2023-10-01T11:00:32Z</time>
      </trkpt>
      <trkpt lat="48.72407" lon="7.18376">
        <ele>271.7</ele>
        <time>2023-10-01T11:00:37Z</time>
      </trkpt>
      <trkpt lat="48.72408" lon="7.18406">
        <ele>271.7</ele>
        <time>2023-10-01T11:00:42Z</time>
      </trkpt>
      <trkpt lat="48.7241" lon="7.18438">
        <ele>271.7</ele>
        <time>2023-10-01T11:00:47Z</time>
      </trkpt>
      <trkpt lat="48.7241" lon="7.1847">
        <ele>271.7</ele>
        <time>2023-10-01T11:00:52Z</time>
      </trkpt>
      <trkpt lat="48.72408" lon="7.18501">
        <ele>271.6</ele>
        <time>2023-10-01T11:00:57Z</time>
      </trkpt>
      <trkpt lat="48.72406" lon="7.18534">
        <ele>271.6</ele>
        <time>2023-10-01T11:01:02Z</time>
      </trkpt>
      <trkpt lat="48.72402" lon="7.18562">
        <ele>271.6</ele>
        <time>2023-10-01T11:01:07Z</time>
      </trkpt>
      <trkpt lat="48.72397" lon="7.18589">
        <ele>271.6</ele>
        <time>2023-10-01T11:01:12Z</time>
      </trkpt>
      <trkpt lat="48.7239" lon="7.18615">
        <ele>271.6</ele>
        <time>2023-10-01T11:01:17Z</time>
      </trkpt>
      <trkpt lat="48.72382" lon="7.18639">
        <ele>271.5</ele>
        <time>2023-10-01T11:01:22Z</time>
      </trkpt>
      <trkpt lat="48.72374" lon="7.18664">
        <ele>271.5</ele>
        <time>2023-10-01T11:01:27Z</time>
      </trkpt>
      <trkpt lat="48.72363" lon="7.1869">
        <ele>271.4</ele>
        <time>2023-10-01T11:01:32Z</time>
      </trkpt>
      <trkpt lat="48.72354" lon="7.18716">
        <ele>271.1</ele>
        <time>2023-10-01T11:01:37Z</time>
      </trkpt>
      <trkpt lat="48.72346" lon="7.18742">
        <ele>271.2</ele>
        <time>2023-10-01T11:01:42Z</time>
      </trkpt>
      <trkpt lat="48.72337" lon="7.18768">
        <ele>271.2</ele>
        <time>2023-10-01T11:01:47Z</time>
      </trkpt>
      <trkpt lat="48.72325" lon="7.18795">
        <ele>271.1</ele>
        <time>2023-10-01T11:01:52Z</time>
      </trkpt>
      <trkpt lat="48.72316" lon="7.18822">
        <ele>271.2</ele>
        <time>2023-10-01T11:01:57Z</time>
      </trkpt>
      <trkpt lat="48.72307" lon="7.1885">
        <ele>271.2</ele>
        <time>2023-10-01T11:02:02Z</time>
      </trkpt>
      <trkpt lat="48.72303" lon="7.1886">
        <ele>271.2</ele>
        <time>2023-10-01T11:02:04Z</time>
      </trkpt>
      <trkpt lat="48.72295" lon="7.18888">
        <ele>271.2</ele>
        <time>2023-10-01T11:02:09Z</time>
      </trkpt>
      <trkpt lat="48.72289" lon="7.18918">
        <ele>271.2</ele>
        <time>2023-10-01T11:02:14Z</time>
      </trkpt>
      <trkpt lat="48.72287" lon="7.18949">
        <ele>271.3</ele>
        <time>2023-10-01T11:02:19Z</time>
      </trkpt>
      <trkpt lat="48.72285" lon="7.18979">
        <ele>271.3</ele>
        <time>2023-10-01T11:02:24Z</time>
      </trkpt>
      <trkpt lat="48.72283" lon="7.19012">
        <ele>271.2</ele>
        <time>2023-10-01T11:02:29Z</time>
      </trkpt>
      <trkpt lat="48.72281" lon="7.1904">
        <ele>271.3</ele>
        <time>2023-10-01T11:02:33Z</time>
      </trkpt>
      <trkpt lat="48.7228" lon="7.19073">
        <ele>271.3</ele>
        <time>2023-10-01T11:02:38Z</time>
      </trkpt>
      <trkpt lat="48.72281" lon="7.19092">
        <ele>271.3</ele>
        <time>2023-10-01T11:02:41Z</time>
      </trkpt>
      <trkpt lat="48.72281" lon="7.19121">
        <ele>271.2</ele>
        <time>2023-10-01T11:02:46Z</time>
      </trkpt>
      <trkpt lat="48.72279" lon="7.19152">
        <ele>271.1</ele>
        <time>2023-10-01T11:02:51Z</time>
      </trkpt>
      <trkpt lat="48.72278" lon="7.19184">
        <ele>271.2</ele>
        <time>2023-10-01T11:02:56Z</time>
      </trkpt>
      <trkpt lat="48.72276" lon="7.19218">
        <ele>271.2</ele>
        <time>2023-10-01T11:03:01Z</time>
      </trkpt>
      <trkpt lat="48.72278" lon="7.1925">
        <ele>271.2</ele>
        <time>2023-10-01T11:03:06Z</time>
      </trkpt>
      <trkpt lat="48.72278" lon="7.19263">
        <ele>271.2</ele>
        <time>2023-10-01T11:03:08Z</time>
      </trkpt>
      <trkpt lat="48.72278" lon="7.19291">
        <ele>271.2</ele>
        <time>2023-10-01T11:03:12Z</time>
      </trkpt>
      <trkpt lat="48.72277" lon="7.19319">
        <ele>271.2</ele>
        <time>2023-10-01T11:03:16Z</time>
      </trkpt>
      <trkpt lat="48.72272" lon="7.19351">
        <ele>271.2</ele>
        <time>2023-10-01T11:03:21Z</time>
      </trkpt>
      <trkpt lat="48.72272" lon="7.19379">
        <ele>271.2</ele>
        <time>2023-10-01T11:03:25Z</time>
      </trkpt>
      <trkpt lat="48.72273" lon="7.19406">
        <ele>271.2</ele>
        <time>2023-10-01T11:03:29Z</time>
      </trkpt>
      <trkpt lat="48.72276" lon="7.19438">
        <ele>271.2</ele>
        <time>2023-10-01T11:03:34Z</time>
      </trkpt>
      <trkpt lat="48.72278" lon="7.19465">
        <ele>271.2</ele>
        <time>2023-10-01T11:03:38Z</time>
      </trkpt>
      <trkpt lat="48.72279" lon="7.19498">
        <ele>271.2</ele>
        <time>2023-10-01T11:03:43Z</time>
      </trkpt>
      <trkpt lat="48.72282" lon="7.1953">
        <ele>271.2</ele>
        <time>2023-10-01T11:03:48Z</time>
      </trkpt>
      <trkpt lat="48.72284" lon="7.19562">
        <ele>271.2</ele>
        <time>2023-10-01T11:03:53Z</time>
      </trkpt>
      <trkpt lat="48.72282" lon="7.19564">
        <ele>271.2</ele>
        <time>2023-10-01T11:03:56Z</time>
      </trkpt>
      <trkpt lat="48.72277" lon="7.19533">
        <ele>271.2</ele>
        <time>2023-10-01T11:04:01Z</time>
      </trkpt>
      <trkpt lat="48.72275" lon="7.19499">
        <ele>271.2</ele>
        <time>2023-10-01T11:04:06Z</time>
      </trkpt>
      <trkpt lat="48.72271" lon="7.19472">
        <ele>271.2</ele>
        <time>2023-10-01T11:04:10Z</time>
      </trkpt>
      <trkpt lat="48.7227" lon="7.19459">
        <ele>271.2</ele>
        <time>2023-10-01T11:04:12Z</time>
      </trkpt>
      <trkpt lat="48.72269" lon="7.1944">
        <ele>271.2</ele>
        <time>2023-10-01T11:04:15Z</time>
      </trkpt>
      <trkpt lat="48.72268" lon="7.19426">
        <ele>271.2</ele>
        <time>2023-10-01T11:04:17Z</time>
      </trkpt>
      <trkpt lat="48.72267" lon="7.19396">
        <ele>271.2</ele>
        <time>2023-10-01T11:04:22Z</time>
      </trkpt>
      <trkpt lat="48.72268" lon="7.19364">
        <ele>271.2</ele>
        <time>2023-10-01T11:04:27Z</time>
      </trkpt>
      <trkpt lat="48.72267" lon="7.19337">
        <ele>271.2</ele>
        <time>2023-10-01T11:04:31Z</time>
      </trkpt>
      <trkpt lat="48.72268" lon="7.19305">
        <ele>271.2</ele>
        <time>2023-10-01T11:04:36Z</time>
      </trkpt>
      <trkpt lat="48.72268" lon="7.19272">
        <ele>271.2</ele>
        <time>2023-10-01T11:04:41Z</time>
      </trkpt>
      <trkpt lat="48.72268" lon="7.1924">
        <ele>271.2</ele>
        <time>2023-10-01T11:04:46Z</time>
      </trkpt>
      <trkpt lat="48.72266" lon="7.19233">
        <ele>271.2</ele>
        <time>2023-10-01T11:04:47Z</time>
      </trkpt>
      <trkpt lat="48.72262" lon="7.19202">
        <ele>271.2</ele>
        <time>2023-10-01T11:04:52Z</time>
      </trkpt>
      <trkpt lat="48.7226" lon="7.19196">
        <ele>271.2</ele>
        <time>2023-10-01T11:04:53Z</time>
      </trkpt>
      <trkpt lat="48.72257" lon="7.19171">
        <ele>271.2</ele>
        <time>2023-10-01T11:04:57Z</time>
      </trkpt>
      <trkpt lat="48.72255" lon="7.1914">
        <ele>271.1</ele>
        <time>2023-10-01T11:05:02Z</time>
      </trkpt>
      <trkpt lat="48.72255" lon="7.19108">
        <ele>271.2</ele>
        <time>2023-10-01T11:05:07Z</time>
      </trkpt>
      <trkpt lat="48.72254" lon="7.19088">
        <ele>271.3</ele>
        <time>2023-10-01T11:05:10Z</time>
      </trkpt>
      <trkpt lat="48.72254" lon="7.19055">
        <ele>271.3</ele>
        <time>2023-10-01T11:05:15Z</time>
      </trkpt>
      <trkpt lat="48.72257" lon="7.19024">
        <ele>271.3</ele>
        <time>2023-10-01T11:05:20Z</time>
      </trkpt>
      <trkpt lat="48.7226" lon="7.18996">
        <ele>271.3</ele>
        <time>2023-10-01T11:05:24Z</time>
      </trkpt>
      <trkpt lat="48.72258" lon="7.18968">
        <ele>271.3</ele>
        <time>2023-10-01T11:05:28Z</time>
      </trkpt>
      <trkpt lat="48.72257" lon="7.18939">
        <ele>271.3</ele>
        <time>2023-10-01T11:05:32Z</time>
      </trkpt>
      <trkpt lat="48.72258" lon="7.18932">
        <ele>271.3</ele>
        <time>2023-10-01T11:05:33Z</time>
      </trkpt>
      <trkpt lat="48.72262" lon="7.18904">
        <ele>271.2</ele>
        <time>2023-10-01T11:05:37Z</time>
      </trkpt>
      <trkpt lat="48.72263" lon="7.18897">
        <ele>271.2</ele>
        <time>2023-10-01T11:05:38Z</time>
      </trkpt>
      <trkpt lat="48.72272" lon="7.1887">
        <ele>271.2</ele>
        <time>2023-10-01T11:05:42Z</time>
      </trkpt>
      <trkpt lat="48.72281" lon="7.18842">
        <ele>271.2</ele>
        <time>2023-10-01T11:05:46Z</time>
      </trkpt>
      <trkpt lat="48.7229" lon="7.18816">
        <ele>271.2</ele>
        <time>2023-10-01T11:05:50Z</time>
      </trkpt>
      <trkpt lat="48.72299" lon="7.18791">
        <ele>271.1</ele>
        <time>2023-10-01T11:05:54Z</time>
      </trkpt>
      <trkpt lat="48.72308" lon="7.18767">
        <ele>271.2</ele>
        <time>2023-10-01T11:05:58Z</time>
      </trkpt>
      <trkpt lat="48.72318" lon="7.18742">
        <ele>271.2</ele>
        <time>2023-10-01T11:06:02Z</time>
      </trkpt>
      <trkpt lat="48.72329" lon="7.18718">
        <ele>271.2</ele>
        <time>2023-10-01T11:06:06Z</time>
      </trkpt>
      <trkpt lat="48.72343" lon="7.18692">
        <ele>271.2</ele>
        <time>2023-10-01T11:06:11Z</time>
      </trkpt>
      <trkpt lat="48.72357" lon="7.18671">
        <ele>271.4</ele>
        <time>2023-10-01T11:06:15Z</time>
      </trkpt>
      <trkpt lat="48.72366" lon="7.18641">
        <ele>271.5</ele>
        <time>2023-10-01T11:06:20Z</time>
      </trkpt>
      <trkpt lat="48.72374" lon="7.18616">
        <ele>271.6</ele>
        <time>2023-10-01T11:06:24Z</time>
      </trkpt>
      <trkpt lat="48.72384" lon="7.18591">
        <ele>271.6</ele>
        <time>2023-10-01T11:06:28Z</time>
      </trkpt>
      <trkpt lat="48.72391" lon="7.18565">
        <ele>271.6</ele>
        <time>2023-10-01T11:06:32Z</time>
      </trkpt>
      <trkpt lat="48.72396" lon="7.18538">
        <ele>271.6</ele>
        <time>2023-10-01T11:06:36Z</time>
      </trkpt>
      <trkpt lat="48.72397" lon="7.18526">
        <ele>271.6</ele>
        <time>2023-10-01T11:06:38Z</time>
      </trkpt>
      <trkpt lat="48.72402" lon="7.18496">
        <ele>271.7</ele>
        <time>2023-10-01T11:06:43Z</time>
      </trkpt>
      <trkpt lat="48.72401" lon="7.18469">
        <ele>271.7</ele>
        <time>2023-10-01T11:06:47Z</time>
      </trkpt>
      <trkpt lat="48.72401" lon="7.18436">
        <ele>271.7</ele>
        <time>2023-10-01T11:06:52Z</time>
      </trkpt>
      <trkpt lat="48.724" lon="7.18409">
        <ele>271.7</ele>
        <time>2023-10-01T11:06:56Z</time>
      </trkpt>
      <trkpt lat="48.72398" lon="7.18382">
        <ele>271.7</ele>
        <time>2023-10-01T11:07:00Z</time>
      </trkpt>
      <trkpt lat="48.72394" lon="7.18367">
        <ele>271.7</ele>
        <time>2023-10-01T11:07:02Z</time>
      </trkpt>
      <trkpt lat="48.7239" lon="7.18339">
        <ele>271.7</ele>
        <time>2023-10-01T11:07:06Z</time>
      </trkpt>
      <trkpt lat="48.72386" lon="7.18312">
        <ele>271.8</ele>
        <time>2023-10-01T11:07:10Z</time>
      </trkpt>
      <trkpt lat="48.72381" lon="7.18285">
        <ele>271.8</ele>
        <time>2023-10-01T11:07:14Z</time>
      </trkpt>
      <trkpt lat="48.72376" lon="7.18256">
        <ele>271.8</ele>
        <time>2023-10-01T11:07:18Z</time>
      </trkpt>
      <trkpt lat="48.72371" lon="7.18229">
        <ele>271.9</ele>
        <time>2023-10-01T11:07:22Z</time>
      </trkpt>
      <trkpt lat="48.72363" lon="7.18203">
        <ele>271.9</ele>
        <time>2023-10-01T11:07:26Z</time>
      </trkpt>
      <trkpt lat="48.72362" lon="7.18196">
        <ele>271.9</ele>
        <time>2023-10-01T11:07:27Z</time>
      </trkpt>
      <trkpt lat="48.72362" lon="7.18189">
        <ele>271.9</ele>
        <time>2023-10-01T11:07:28Z</time>
      </trkpt>
      <trkpt lat="48.72361" lon="7.18157">
        <ele>271.9</ele>
        <time>2023-10-01T11:07:33Z</time>
      </trkpt>
      <trkpt lat="48.72361" lon="7.18153">
        <ele>271.9</ele>
        <time>2023-10-01T11:07:34Z</time>
      </trkpt>
      <trkpt lat="48.7236" lon="7.18126">
        <ele>271.9</ele>
        <time>2023-10-01T11:07:43Z</time>
      </trkpt>
      <trkpt lat="48.72356" lon="7.18099">
        <ele>271.9</ele>
        <time>2023-10-01T11:07:57Z</time>
      </trkpt>
      <trkpt lat="48.72356" lon="7.1807">
        <ele>272</ele>
        <time>2023-10-01T11:08:06Z</time>
      </trkpt>
      <trkpt lat="48.72361" lon="7.18043">
        <ele>272.2</ele>
        <time>2023-10-01T11:08:13Z</time>
      </trkpt>
      <trkpt lat="48.72369" lon="7.18015">
        <ele>272.1</ele>
        <time>2023-10-01T11:08:21Z</time>
      </trkpt>
      <trkpt lat="48.72368" lon="7.17993">
        <ele>272.1</ele>
        <time>2023-10-01T11:08:27Z</time>
      </trkpt>
      <trkpt lat="48.72376" lon="7.17969">
        <ele>272.1</ele>
        <time>2023-10-01T11:08:35Z</time>
      </trkpt>
      <trkpt lat="48.7238" lon="7.17964">
        <ele>272.1</ele>
        <time>2023-10-01T11:08:38Z</time>
      </trkpt>
      <trkpt lat="48.72384" lon="7.17967">
        <ele>272.1</ele>
        <time>2023-10-01T11:08:40Z</time>
      </trkpt>
      <trkpt lat="48.72397" lon="7.17987">
        <ele>272.1</ele>
        <time>2023-10-01T11:08:49Z</time>
      </trkpt>
      <trkpt lat="48.72412" lon="7.18007">
        <ele>272.2</ele>
        <time>2023-10-01T11:08:59Z</time>
      </trkpt>
      <trkpt lat="48.72411" lon="7.18032">
        <ele>272.4</ele>
        <time>2023-10-01T11:09:09Z</time>
      </trkpt>
      <trkpt lat="48.72396" lon="7.18018">
        <ele>272.7</ele>
        <time>2023-10-01T11:09:19Z</time>
      </trkpt>
      <trkpt lat="48.72385" lon="7.17994">
        <ele>272.8</ele>
        <time>2023-10-01T11:09:30Z</time>
      </trkpt>
      <trkpt lat="48.72369" lon="7.17977">
        <ele>272.9</ele>
        <time>2023-10-01T11:09:38Z</time>
      </trkpt>
      <trkpt lat="48.72357" lon="7.17954">
        <ele>273</ele>
        <time>2023-10-01T11:09:47Z</time>
      </trkpt>
      <trkpt lat="48.72346" lon="7.17929">
        <ele>272.9</ele>
        <time>2023-10-01T11:09:56Z</time>
      </trkpt>
      <trkpt lat="48.72336" lon="7.17903">
        <ele>272.7</ele>
        <time>2023-10-01T11:10:05Z</time>
      </trkpt>
      <trkpt lat="48.72329" lon="7.17875">
        <ele>272.3</ele>
        <time>2023-10-01T11:10:14Z</time>
      </trkpt>
      <trkpt lat="48.72323" lon="7.17848">
        <ele>272</ele>
        <time>2023-10-01T11:10:22Z</time>
      </trkpt>
      <trkpt lat="48.7232" lon="7.17819">
        <ele>271.7</ele>
        <time>2023-10-01T11:10:30Z</time>
      </trkpt>
      <trkpt lat="48.72319" lon="7.17791">
        <ele>271.6</ele>
        <time>2023-10-01T11:10:38Z</time>
      </trkpt>
      <trkpt lat="48.72315" lon="7.17762">
        <ele>271.6</ele>
        <time>2023-10-01T11:10:48Z</time>
      </trkpt>
      <trkpt lat="48.72316" lon="7.17733">
        <ele>271.7</ele>
        <time>2023-10-01T11:10:57Z</time>
      </trkpt>
      <trkpt lat="48.72321" lon="7.17705">
        <ele>272</ele>
        <time>2023-10-01T11:11:05Z</time>
      </trkpt>
      <trkpt lat="48.72327" lon="7.17678">
        <ele>271.8</ele>
        <time>2023-10-01T11:11:12Z</time>
      </trkpt>
      <trkpt lat="48.72329" lon="7.17649">
        <ele>272.4</ele>
        <time>2023-10-01T11:11:20Z</time>
      </trkpt>
      <trkpt lat="48.72328" lon="7.17621">
        <ele>273.2</ele>
        <time>2023-10-01T11:11:28Z</time>
      </trkpt>
      <trkpt lat="48.72324" lon="7.17594">
        <ele>274.3</ele>
        <time>2023-10-01T11:11:36Z</time>
      </trkpt>
      <trkpt lat="48.72321" lon="7.17566">
        <ele>275.6</ele>
        <time>2023-10-01T11:11:44Z</time>
      </trkpt>
      <trkpt lat="48.72317" lon="7.17538">
        <ele>277.3</ele>
        <time>2023-10-01T11:11:53Z</time>
      </trkpt>
      <trkpt lat="48.72312" lon="7.17509">
        <ele>278.8</ele>
        <time>2023-10-01T11:12:04Z</time>
      </trkpt>
      <trkpt lat="48.72307" lon="7.17481">
        <ele>280.2</ele>
        <time>2023-10-01T11:12:15Z</time>
      </trkpt>
      <trkpt lat="48.72302" lon="7.17453">
        <ele>281.4</ele>
        <time>2023-10-01T11:12:23Z</time>
      </trkpt>
      <trkpt lat="48.72298" lon="7.17422">
        <ele>282.6</ele>
        <time>2023-10-01T11:12:30Z</time>
      </trkpt>
      <trkpt lat="48.72297" lon="7.1739">
        <ele>283.5</ele>
        <time>2023-10-01T11:12:38Z</time>
      </trkpt>
      <trkpt lat="48.72296" lon="7.17359">
        <ele>284</ele>
        <time>2023-10-01T11:12:45Z</time>
      </trkpt>
      <trkpt lat="48.72297" lon="7.1733">
        <ele>284.3</ele>
        <time>2023-10-01T11:12:52Z</time>
      </trkpt>
      <trkpt lat="48.72296" lon="7.17302">
        <ele>284.4</ele>
        <time>2023-10-01T11:12:59Z</time>
      </trkpt>
      <trkpt lat="48.72296" lon="7.17274">
        <ele>284.5</ele>
        <time>2023-10-01T11:13:06Z</time>
      </trkpt>
      <trkpt lat="48.72293" lon="7.17246">
        <ele>284.5</ele>
        <time>2023-10-01T11:13:13Z</time>
      </trkpt>
      <trkpt lat="48.72287" lon="7.17217">
        <ele>284.5</ele>
        <time>2023-10-01T11:13:20Z</time>
      </trkpt>
      <trkpt lat="48.72282" lon="7.17188">
        <ele>284.4</ele>
        <time>2023-10-01T11:13:27Z</time>
      </trkpt>
      <trkpt lat="48.72277" lon="7.17159">
        <ele>284.3</ele>
        <time>2023-10-01T11:13:35Z</time>
      </trkpt>
      <trkpt lat="48.72268" lon="7.17134">
        <ele>284.3</ele>
        <time>2023-10-01T11:13:42Z</time>
      </trkpt>
      <trkpt lat="48.72261" lon="7.17107">
        <ele>284.3</ele>
        <time>2023-10-01T11:13:50Z</time>
      </trkpt>
      <trkpt lat="48.72254" lon="7.17079">
        <ele>284.3</ele>
        <time>2023-10-01T11:13:58Z</time>
      </trkpt>
      <trkpt lat="48.72247" lon="7.17053">
        <ele>284.4</ele>
        <time>2023-10-01T11:14:05Z</time>
      </trkpt>
      <trkpt lat="48.72239" lon="7.17025">
        <ele>284.5</ele>
        <time>2023-10-01T11:14:13Z</time>
      </trkpt>
      <trkpt lat="48.72233" lon="7.16995">
        <ele>284.7</ele>
        <time>2023-10-01T11:14:21Z</time>
      </trkpt>
      <trkpt lat="48.72227" lon="7.16967">
        <ele>284.9</ele>
        <time>2023-10-01T11:14:29Z</time>
      </trkpt>
      <trkpt lat="48.72221" lon="7.16938">
        <ele>285</ele>
        <time>2023-10-01T11:14:37Z</time>
      </trkpt>
      <trkpt lat="48.72215" lon="7.16909">
        <ele>285</ele>
        <time>2023-10-01T11:14:45Z</time>
      </trkpt>
      <trkpt lat="48.7221" lon="7.16882">
        <ele>284.8</ele>
        <time>2023-10-01T11:14:52Z</time>
      </trkpt>
      <trkpt lat="48.72206" lon="7.16852">
        <ele>284.7</ele>
        <time>2023-10-01T11:15:00Z</time>
      </trkpt>
      <trkpt lat="48.722" lon="7.16825">
        <ele>284.7</ele>
        <time>2023-10-01T11:15:07Z</time>
      </trkpt>
      <trkpt lat="48.72191" lon="7.16802">
        <ele>284.6</ele>
        <time>2023-10-01T11:15:14Z</time>
      </trkpt>
      <trkpt lat="48.72174" lon="7.16788">
        <ele>284.6</ele>
        <time>2023-10-01T11:15:21Z</time>
      </trkpt>
      <trkpt lat="48.72155" lon="7.1678">
        <ele>284.7</ele>
        <time>2023-10-01T11:15:28Z</time>
      </trkpt>
      <trkpt lat="48.72138" lon="7.16768">
        <ele>284.9</ele>
        <time>2023-10-01T11:15:35Z</time>
      </trkpt>
      <trkpt lat="48.72122" lon="7.16753">
        <ele>285.4</ele>
        <time>2023-10-01T11:15:43Z</time>
      </trkpt>
      <trkpt lat="48.72109" lon="7.1673">
        <ele>286</ele>
        <time>2023-10-01T11:15:52Z</time>
      </trkpt>
      <trkpt lat="48.72096" lon="7.16709">
        <ele>286.8</ele>
        <time>2023-10-01T11:16:01Z</time>
      </trkpt>
      <trkpt lat="48.72084" lon="7.16687">
        <ele>287.7</ele>
        <time>2023-10-01T11:16:09Z</time>
      </trkpt>
      <trkpt lat="48.7207" lon="7.16667">
        <ele>288.7</ele>
        <time>2023-10-01T11:16:19Z</time>
      </trkpt>
      <trkpt lat="48.72057" lon="7.16648">
        <ele>289.6</ele>
        <time>2023-10-01T11:16:28Z</time>
      </trkpt>
      <trkpt lat="48.72044" lon="7.16626">
        <ele>290.5</ele>
        <time>2023-10-01T11:16:37Z</time>
      </trkpt>
      <trkpt lat="48.72027" lon="7.16612">
        <ele>291.4</ele>
        <time>2023-10-01T11:16:46Z</time>
      </trkpt>
      <trkpt lat="48.72009" lon="7.16608">
        <ele>291.9</ele>
        <time>2023-10-01T11:16:55Z</time>
      </trkpt>
      <trkpt lat="48.7199" lon="7.16611">
        <ele>292.3</ele>
        <time>2023-10-01T11:17:03Z</time>
      </trkpt>
      <trkpt lat="48.71973" lon="7.16595">
        <ele>292.8</ele>
        <time>2023-10-01T11:17:11Z</time>
      </trkpt>
      <trkpt lat="48.71958" lon="7.1658">
        <ele>293.2</ele>
        <time>2023-10-01T11:17:18Z</time>
      </trkpt>
      <trkpt lat="48.71943" lon="7.16564">
        <ele>293.7</ele>
        <time>2023-10-01T11:17:25Z</time>
      </trkpt>
      <trkpt lat="48.71927" lon="7.16545">
        <ele>294.2</ele>
        <time>2023-10-01T11:17:33Z</time>
      </trkpt>
      <trkpt lat="48.7191" lon="7.16532">
        <ele>294.7</ele>
        <time>2023-10-01T11:17:41Z</time>
      </trkpt>
      <trkpt lat="48.71895" lon="7.16516">
        <ele>295.1</ele>
        <time>2023-10-01T11:17:49Z</time>
      </trkpt>
      <trkpt lat="48.7188" lon="7.16501">
        <ele>295.4</ele>
        <time>2023-10-01T11:17:56Z</time>
      </trkpt>
      <trkpt lat="48.71863" lon="7.16486">
        <ele>295.9</ele>
        <time>2023-10-01T11:18:04Z</time>
      </trkpt>
      <trkpt lat="48.71848" lon="7.16471">
        <ele>296.3</ele>
        <time>2023-10-01T11:18:12Z</time>
      </trkpt>
      <trkpt lat="48.7183" lon="7.16461">
        <ele>296.6</ele>
        <time>2023-10-01T11:18:20Z</time>
      </trkpt>
      <trkpt lat="48.71814" lon="7.16447">
        <ele>297</ele>
        <time>2023-10-01T11:18:27Z</time>
      </trkpt>
      <trkpt lat="48.71797" lon="7.16431">
        <ele>297.3</ele>
        <time>2023-10-01T11:18:35Z</time>
      </trkpt>
      <trkpt lat="48.71779" lon="7.16421">
        <ele>297.4</ele>
        <time>2023-10-01T11:18:43Z</time>
      </trkpt>
      <trkpt lat="48.7176" lon="7.16418">
        <ele>297.6</ele>
        <time>2023-10-01T11:18:51Z</time>
      </trkpt>
      <trkpt lat="48.71741" lon="7.1642">
        <ele>297.8</ele>
        <time>2023-10-01T11:19:01Z</time>
      </trkpt>
      <trkpt lat="48.7172" lon="7.16416">
        <ele>298.1</ele>
        <time>2023-10-01T11:19:10Z</time>
      </trkpt>
      <trkpt lat="48.71701" lon="7.1641">
        <ele>298.4</ele>
        <time>2023-10-01T11:19:18Z</time>
      </trkpt>
      <trkpt lat="48.71681" lon="7.16406">
        <ele>298.9</ele>
        <time>2023-10-01T11:19:25Z</time>
      </trkpt>
      <trkpt lat="48.71662" lon="7.16399">
        <ele>299.3</ele>
        <time>2023-10-01T11:19:33Z</time>
      </trkpt>
      <trkpt lat="48.71643" lon="7.16391">
        <ele>299.8</ele>
        <time>2023-10-01T11:19:41Z</time>
      </trkpt>
      <trkpt lat="48.71623" lon="7.16381">
        <ele>300.3</ele>
        <time>2023-10-01T11:19:49Z</time>
      </trkpt>
      <trkpt lat="48.71604" lon="7.16374">
        <ele>300.8</ele>
        <time>2023-10-01T11:19:56Z</time>
      </trkpt>
      <trkpt lat="48.71586" lon="7.16371">
        <ele>301.3</ele>
        <time>2023-10-01T11:20:03Z</time>
      </trkpt>
      <trkpt lat="48.71567" lon="7.16372">
        <ele>301.7</ele>
        <time>2023-10-01T11:20:10Z</time>
      </trkpt>
      <trkpt lat="48.71547" lon="7.16374">
        <ele>302.1</ele>
        <time>2023-10-01T11:20:18Z</time>
      </trkpt>
      <trkpt lat="48.71529" lon="7.16379">
        <ele>302.7</ele>
        <time>2023-10-01T11:20:26Z</time>
      </trkpt>
      <trkpt lat="48.71512" lon="7.16389">
        <ele>303.4</ele>
        <time>2023-10-01T11:20:34Z</time>
      </trkpt>
      <trkpt lat="48.71493" lon="7.16401">
        <ele>304.3</ele>
        <time>2023-10-01T11:20:42Z</time>
      </trkpt>
      <trkpt lat="48.71473" lon="7.16406">
        <ele>305.1</ele>
        <time>2023-10-01T11:20:50Z</time>
      </trkpt>
      <trkpt lat="48.71454" lon="7.1641">
        <ele>306.1</ele>
        <time>2023-10-01T11:20:58Z</time>
      </trkpt>
      <trkpt lat="48.71434" lon="7.16409">
        <ele>307.2</ele>
        <time>2023-10-01T11:21:06Z</time>
      </trkpt>
      <trkpt lat="48.71416" lon="7.16405">
        <ele>308.2</ele>
        <time>2023-10-01T11:21:14Z</time>
      </trkpt>
      <trkpt lat="48.71398" lon="7.16401">
        <ele>309.1</ele>
        <time>2023-10-01T11:21:21Z</time>
      </trkpt>
      <trkpt lat="48.71379" lon="7.16395">
        <ele>309.9</ele>
        <time>2023-10-01T11:21:29Z</time>
      </trkpt>
      <trkpt lat="48.71361" lon="7.16386">
        <ele>310.4</ele>
        <time>2023-10-01T11:21:39Z</time>
      </trkpt>
      <trkpt lat="48.71341" lon="7.16377">
        <ele>310.8</ele>
        <time>2023-10-01T11:21:48Z</time>
      </trkpt>
      <trkpt lat="48.71323" lon="7.16371">
        <ele>311</ele>
        <time>2023-10-01T11:21:55Z</time>
      </trkpt>
      <trkpt lat="48.71306" lon="7.1636">
        <ele>311.2</ele>
        <time>2023-10-01T11:22:01Z</time>
      </trkpt>
      <trkpt lat="48.71288" lon="7.16348">
        <ele>311.4</ele>
        <time>2023-10-01T11:22:08Z</time>
      </trkpt>
      <trkpt lat="48.71271" lon="7.16333">
        <ele>311.6</ele>
        <time>2023-10-01T11:22:15Z</time>
      </trkpt>
      <trkpt lat="48.71256" lon="7.16315">
        <ele>311.9</ele>
        <time>2023-10-01T11:22:22Z</time>
      </trkpt>
      <trkpt lat="48.71239" lon="7.16298">
        <ele>312.3</ele>
        <time>2023-10-01T11:22:29Z</time>
      </trkpt>
      <trkpt lat="48.71223" lon="7.16282">
        <ele>312.8</ele>
        <time>2023-10-01T11:22:36Z</time>
      </trkpt>
      <trkpt lat="48.71207" lon="7.16268">
        <ele>313.3</ele>
        <time>2023-10-01T11:22:43Z</time>
      </trkpt>
      <trkpt lat="48.71189" lon="7.16258">
        <ele>314.1</ele>
        <time>2023-10-01T11:22:51Z</time>
      </trkpt>
      <trkpt lat="48.7117" lon="7.16259">
        <ele>315.1</ele>
        <time>2023-10-01T11:23:00Z</time>
      </trkpt>
      <trkpt lat="48.71152" lon="7.16268">
        <ele>316</ele>
        <time>2023-10-01T11:23:09Z</time>
      </trkpt>
      <trkpt lat="48.71149" lon="7.16269">
        <ele>316.2</ele>
        <time>2023-10-01T11:23:11Z</time>
      </trkpt>
    </trkseg>
  </trk>
</gpx>